<?xml version="1.0" encoding="UTF-8" standalone="no" ?>
<gpx xmlns="http://www.topografix.com/GPX/1/1" xmlns:xsi="http://www.w3.org/2001/XMLSchema-instance" xsi:schemaLocation="http://www.topografix.com/GPX/1/1 http://www.topografix.com/GPX/1/1/gpx.xsd" version="1.1" creator="VisuGPX - https://www.visugpx.com">
  <metadata>
    <name>jura val d'amour vaudrey</name>
    <desc><![CDATA[Jolie randonnée pédestre dans le val d'amour au départ du pont du gué à vaudrey]]></desc>
  </metadata>
  <trk>
    <name><![CDATA[vaudrey2]]></name>
    <trkseg>
      <trkpt lat="46.97423" lon="5.63205">
        <ele>221</ele>
        <time>2009-05-14T13:17:30Z</time>
      </trkpt>
      <trkpt lat="46.97422" lon="5.63213">
        <ele>220</ele>
        <time>2009-05-14T13:17:50Z</time>
      </trkpt>
      <trkpt lat="46.97432" lon="5.6323">
        <ele>221</ele>
        <time>2009-05-14T13:18:02Z</time>
      </trkpt>
      <trkpt lat="46.9744" lon="5.63243">
        <ele>221</ele>
        <time>2009-05-14T13:18:11Z</time>
      </trkpt>
      <trkpt lat="46.97451" lon="5.63254">
        <ele>220</ele>
        <time>2009-05-14T13:18:22Z</time>
      </trkpt>
      <trkpt lat="46.97461" lon="5.63276">
        <ele>220</ele>
        <time>2009-05-14T13:18:36Z</time>
      </trkpt>
      <trkpt lat="46.97459" lon="5.63286">
        <ele>218</ele>
        <time>2009-05-14T13:18:42Z</time>
      </trkpt>
      <trkpt lat="46.97456" lon="5.63291">
        <ele>220</ele>
        <time>2009-05-14T13:18:46Z</time>
      </trkpt>
      <trkpt lat="46.97453" lon="5.63297">
        <ele>219</ele>
        <time>2009-05-14T13:18:50Z</time>
      </trkpt>
      <trkpt lat="46.9744" lon="5.63308">
        <ele>219</ele>
        <time>2009-05-14T13:19:04Z</time>
      </trkpt>
      <trkpt lat="46.97427" lon="5.63319">
        <ele>220</ele>
        <time>2009-05-14T13:19:20Z</time>
      </trkpt>
      <trkpt lat="46.97412" lon="5.63324">
        <ele>219</ele>
        <time>2009-05-14T13:19:35Z</time>
      </trkpt>
      <trkpt lat="46.97396" lon="5.63337">
        <ele>220</ele>
        <time>2009-05-14T13:19:49Z</time>
      </trkpt>
      <trkpt lat="46.97392" lon="5.63342">
        <ele>221</ele>
        <time>2009-05-14T13:19:54Z</time>
      </trkpt>
      <trkpt lat="46.97382" lon="5.63345">
        <ele>219</ele>
        <time>2009-05-14T13:20:03Z</time>
      </trkpt>
      <trkpt lat="46.97377" lon="5.63348">
        <ele>221</ele>
        <time>2009-05-14T13:20:07Z</time>
      </trkpt>
      <trkpt lat="46.97374" lon="5.63349">
        <ele>219</ele>
        <time>2009-05-14T13:20:10Z</time>
      </trkpt>
      <trkpt lat="46.97371" lon="5.63351">
        <ele>221</ele>
        <time>2009-05-14T13:20:13Z</time>
      </trkpt>
      <trkpt lat="46.9736" lon="5.63357">
        <ele>221</ele>
        <time>2009-05-14T13:20:27Z</time>
      </trkpt>
      <trkpt lat="46.97358" lon="5.63359">
        <ele>220</ele>
        <time>2009-05-14T13:20:29Z</time>
      </trkpt>
      <trkpt lat="46.97353" lon="5.63363">
        <ele>219</ele>
        <time>2009-05-14T13:20:34Z</time>
      </trkpt>
      <trkpt lat="46.97349" lon="5.63365">
        <ele>222</ele>
        <time>2009-05-14T13:20:37Z</time>
      </trkpt>
      <trkpt lat="46.97344" lon="5.63371">
        <ele>219</ele>
        <time>2009-05-14T13:20:41Z</time>
      </trkpt>
      <trkpt lat="46.97335" lon="5.63377">
        <ele>221</ele>
        <time>2009-05-14T13:20:50Z</time>
      </trkpt>
      <trkpt lat="46.97327" lon="5.6338">
        <ele>220</ele>
        <time>2009-05-14T13:20:56Z</time>
      </trkpt>
      <trkpt lat="46.97314" lon="5.63396">
        <ele>222</ele>
        <time>2009-05-14T13:21:10Z</time>
      </trkpt>
      <trkpt lat="46.9731" lon="5.63399">
        <ele>220</ele>
        <time>2009-05-14T13:21:14Z</time>
      </trkpt>
      <trkpt lat="46.97296" lon="5.63409">
        <ele>220</ele>
        <time>2009-05-14T13:21:28Z</time>
      </trkpt>
      <trkpt lat="46.97278" lon="5.63431">
        <ele>220</ele>
        <time>2009-05-14T13:21:46Z</time>
      </trkpt>
      <trkpt lat="46.97261" lon="5.63444">
        <ele>222</ele>
        <time>2009-05-14T13:21:59Z</time>
      </trkpt>
      <trkpt lat="46.97247" lon="5.63459">
        <ele>220</ele>
        <time>2009-05-14T13:22:13Z</time>
      </trkpt>
      <trkpt lat="46.97241" lon="5.63463">
        <ele>223</ele>
        <time>2009-05-14T13:22:18Z</time>
      </trkpt>
      <trkpt lat="46.97229" lon="5.63477">
        <ele>223</ele>
        <time>2009-05-14T13:22:31Z</time>
      </trkpt>
      <trkpt lat="46.97217" lon="5.63488">
        <ele>222</ele>
        <time>2009-05-14T13:22:45Z</time>
      </trkpt>
      <trkpt lat="46.97203" lon="5.63498">
        <ele>223</ele>
        <time>2009-05-14T13:22:57Z</time>
      </trkpt>
      <trkpt lat="46.97194" lon="5.63509">
        <ele>223</ele>
        <time>2009-05-14T13:23:06Z</time>
      </trkpt>
      <trkpt lat="46.97187" lon="5.63518">
        <ele>222</ele>
        <time>2009-05-14T13:23:12Z</time>
      </trkpt>
      <trkpt lat="46.97171" lon="5.63539">
        <ele>223</ele>
        <time>2009-05-14T13:23:26Z</time>
      </trkpt>
      <trkpt lat="46.97167" lon="5.63545">
        <ele>225</ele>
        <time>2009-05-14T13:23:30Z</time>
      </trkpt>
      <trkpt lat="46.97152" lon="5.63573">
        <ele>223</ele>
        <time>2009-05-14T13:23:48Z</time>
      </trkpt>
      <trkpt lat="46.97143" lon="5.63595">
        <ele>222</ele>
        <time>2009-05-14T13:23:58Z</time>
      </trkpt>
      <trkpt lat="46.9714" lon="5.63603">
        <ele>222</ele>
        <time>2009-05-14T13:24:03Z</time>
      </trkpt>
      <trkpt lat="46.97131" lon="5.63622">
        <ele>223</ele>
        <time>2009-05-14T13:24:20Z</time>
      </trkpt>
      <trkpt lat="46.97108" lon="5.63648">
        <ele>223</ele>
        <time>2009-05-14T13:24:41Z</time>
      </trkpt>
      <trkpt lat="46.97098" lon="5.63661">
        <ele>222</ele>
        <time>2009-05-14T13:24:51Z</time>
      </trkpt>
      <trkpt lat="46.97074" lon="5.63695">
        <ele>223</ele>
        <time>2009-05-14T13:25:17Z</time>
      </trkpt>
      <trkpt lat="46.97064" lon="5.63728">
        <ele>223</ele>
        <time>2009-05-14T13:25:38Z</time>
      </trkpt>
      <trkpt lat="46.97064" lon="5.63746">
        <ele>223</ele>
        <time>2009-05-14T13:25:48Z</time>
      </trkpt>
      <trkpt lat="46.97066" lon="5.63764">
        <ele>222</ele>
        <time>2009-05-14T13:25:59Z</time>
      </trkpt>
      <trkpt lat="46.9706" lon="5.63786">
        <ele>223</ele>
        <time>2009-05-14T13:26:09Z</time>
      </trkpt>
      <trkpt lat="46.97056" lon="5.63808">
        <ele>223</ele>
        <time>2009-05-14T13:26:20Z</time>
      </trkpt>
      <trkpt lat="46.97045" lon="5.63826">
        <ele>222</ele>
        <time>2009-05-14T13:26:34Z</time>
      </trkpt>
      <trkpt lat="46.97034" lon="5.63834">
        <ele>224</ele>
        <time>2009-05-14T13:26:44Z</time>
      </trkpt>
      <trkpt lat="46.97027" lon="5.63833">
        <ele>222</ele>
        <time>2009-05-14T13:26:48Z</time>
      </trkpt>
      <trkpt lat="46.97024" lon="5.63835">
        <ele>222</ele>
        <time>2009-05-14T13:26:50Z</time>
      </trkpt>
      <trkpt lat="46.97022" lon="5.63832">
        <ele>222</ele>
        <time>2009-05-14T13:26:52Z</time>
      </trkpt>
      <trkpt lat="46.97007" lon="5.63833">
        <ele>224</ele>
        <time>2009-05-14T13:27:04Z</time>
      </trkpt>
      <trkpt lat="46.9699" lon="5.63842">
        <ele>222</ele>
        <time>2009-05-14T13:27:18Z</time>
      </trkpt>
      <trkpt lat="46.96978" lon="5.63856">
        <ele>223</ele>
        <time>2009-05-14T13:27:31Z</time>
      </trkpt>
      <trkpt lat="46.96974" lon="5.63858">
        <ele>224</ele>
        <time>2009-05-14T13:27:35Z</time>
      </trkpt>
      <trkpt lat="46.96958" lon="5.63875">
        <ele>222</ele>
        <time>2009-05-14T13:27:50Z</time>
      </trkpt>
      <trkpt lat="46.96942" lon="5.63895">
        <ele>223</ele>
        <time>2009-05-14T13:28:05Z</time>
      </trkpt>
      <trkpt lat="46.96932" lon="5.63915">
        <ele>222</ele>
        <time>2009-05-14T13:28:17Z</time>
      </trkpt>
      <trkpt lat="46.96928" lon="5.63927">
        <ele>222</ele>
        <time>2009-05-14T13:28:23Z</time>
      </trkpt>
      <trkpt lat="46.9692" lon="5.63944">
        <ele>222</ele>
        <time>2009-05-14T13:28:37Z</time>
      </trkpt>
      <trkpt lat="46.96913" lon="5.63952">
        <ele>222</ele>
        <time>2009-05-14T13:28:45Z</time>
      </trkpt>
      <trkpt lat="46.96911" lon="5.63954">
        <ele>223</ele>
        <time>2009-05-14T13:28:47Z</time>
      </trkpt>
      <trkpt lat="46.96896" lon="5.6396">
        <ele>224</ele>
        <time>2009-05-14T13:28:59Z</time>
      </trkpt>
      <trkpt lat="46.96882" lon="5.63963">
        <ele>222</ele>
        <time>2009-05-14T13:29:10Z</time>
      </trkpt>
      <trkpt lat="46.96867" lon="5.63975">
        <ele>224</ele>
        <time>2009-05-14T13:29:23Z</time>
      </trkpt>
      <trkpt lat="46.96853" lon="5.63991">
        <ele>224</ele>
        <time>2009-05-14T13:29:37Z</time>
      </trkpt>
      <trkpt lat="46.96846" lon="5.63996">
        <ele>224</ele>
        <time>2009-05-14T13:29:44Z</time>
      </trkpt>
      <trkpt lat="46.9684" lon="5.63999">
        <ele>224</ele>
        <time>2009-05-14T13:29:49Z</time>
      </trkpt>
      <trkpt lat="46.96823" lon="5.64019">
        <ele>224</ele>
        <time>2009-05-14T13:30:05Z</time>
      </trkpt>
      <trkpt lat="46.96812" lon="5.64036">
        <ele>225</ele>
        <time>2009-05-14T13:30:17Z</time>
      </trkpt>
      <trkpt lat="46.9681" lon="5.64038">
        <ele>226</ele>
        <time>2009-05-14T13:30:19Z</time>
      </trkpt>
      <trkpt lat="46.96801" lon="5.64047">
        <ele>225</ele>
        <time>2009-05-14T13:30:25Z</time>
      </trkpt>
      <trkpt lat="46.96799" lon="5.64049">
        <ele>226</ele>
        <time>2009-05-14T13:30:27Z</time>
      </trkpt>
      <trkpt lat="46.96785" lon="5.64065">
        <ele>226</ele>
        <time>2009-05-14T13:30:37Z</time>
      </trkpt>
      <trkpt lat="46.96777" lon="5.64073">
        <ele>223</ele>
        <time>2009-05-14T13:30:43Z</time>
      </trkpt>
      <trkpt lat="46.96765" lon="5.64091">
        <ele>224</ele>
        <time>2009-05-14T13:30:56Z</time>
      </trkpt>
      <trkpt lat="46.96754" lon="5.64106">
        <ele>224</ele>
        <time>2009-05-14T13:31:10Z</time>
      </trkpt>
      <trkpt lat="46.96751" lon="5.64108">
        <ele>224</ele>
        <time>2009-05-14T13:31:12Z</time>
      </trkpt>
      <trkpt lat="46.96735" lon="5.6413">
        <ele>223</ele>
        <time>2009-05-14T13:31:26Z</time>
      </trkpt>
      <trkpt lat="46.96726" lon="5.64141">
        <ele>223</ele>
        <time>2009-05-14T13:31:34Z</time>
      </trkpt>
      <trkpt lat="46.96704" lon="5.64177">
        <ele>223</ele>
        <time>2009-05-14T13:31:52Z</time>
      </trkpt>
      <trkpt lat="46.96696" lon="5.6419">
        <ele>223</ele>
        <time>2009-05-14T13:32:06Z</time>
      </trkpt>
      <trkpt lat="46.96695" lon="5.64192">
        <ele>225</ele>
        <time>2009-05-14T13:32:09Z</time>
      </trkpt>
      <trkpt lat="46.96683" lon="5.64207">
        <ele>223</ele>
        <time>2009-05-14T13:32:23Z</time>
      </trkpt>
      <trkpt lat="46.96674" lon="5.64223">
        <ele>224</ele>
        <time>2009-05-14T13:32:36Z</time>
      </trkpt>
      <trkpt lat="46.9666" lon="5.64242">
        <ele>225</ele>
        <time>2009-05-14T13:32:51Z</time>
      </trkpt>
      <trkpt lat="46.96648" lon="5.64259">
        <ele>225</ele>
        <time>2009-05-14T13:33:05Z</time>
      </trkpt>
      <trkpt lat="46.96635" lon="5.64276">
        <ele>223</ele>
        <time>2009-05-14T13:33:20Z</time>
      </trkpt>
      <trkpt lat="46.96634" lon="5.64276">
        <ele>224</ele>
        <time>2009-05-14T13:33:21Z</time>
      </trkpt>
      <trkpt lat="46.96624" lon="5.64287">
        <ele>224</ele>
        <time>2009-05-14T13:33:35Z</time>
      </trkpt>
      <trkpt lat="46.96618" lon="5.64292">
        <ele>224</ele>
        <time>2009-05-14T13:34:21Z</time>
      </trkpt>
      <trkpt lat="46.96623" lon="5.64286">
        <ele>224</ele>
        <time>2009-05-14T13:34:53Z</time>
      </trkpt>
      <trkpt lat="46.96614" lon="5.64297">
        <ele>223</ele>
        <time>2009-05-14T13:36:05Z</time>
      </trkpt>
      <trkpt lat="46.96592" lon="5.64317">
        <ele>223</ele>
        <time>2009-05-14T13:36:24Z</time>
      </trkpt>
      <trkpt lat="46.96579" lon="5.64326">
        <ele>223</ele>
        <time>2009-05-14T13:36:37Z</time>
      </trkpt>
      <trkpt lat="46.96568" lon="5.64333">
        <ele>223</ele>
        <time>2009-05-14T13:36:49Z</time>
      </trkpt>
      <trkpt lat="46.96562" lon="5.64338">
        <ele>224</ele>
        <time>2009-05-14T13:36:55Z</time>
      </trkpt>
      <trkpt lat="46.96549" lon="5.64352">
        <ele>223</ele>
        <time>2009-05-14T13:37:11Z</time>
      </trkpt>
      <trkpt lat="46.96541" lon="5.64368">
        <ele>223</ele>
        <time>2009-05-14T13:37:22Z</time>
      </trkpt>
      <trkpt lat="46.96521" lon="5.64396">
        <ele>224</ele>
        <time>2009-05-14T13:37:42Z</time>
      </trkpt>
      <trkpt lat="46.96513" lon="5.64409">
        <ele>224</ele>
        <time>2009-05-14T13:37:52Z</time>
      </trkpt>
      <trkpt lat="46.96511" lon="5.64412">
        <ele>224</ele>
        <time>2009-05-14T13:37:54Z</time>
      </trkpt>
      <trkpt lat="46.96505" lon="5.64417">
        <ele>224</ele>
        <time>2009-05-14T13:37:59Z</time>
      </trkpt>
      <trkpt lat="46.96503" lon="5.64419">
        <ele>224</ele>
        <time>2009-05-14T13:38:01Z</time>
      </trkpt>
      <trkpt lat="46.96499" lon="5.64424">
        <ele>225</ele>
        <time>2009-05-14T13:38:06Z</time>
      </trkpt>
      <trkpt lat="46.9649" lon="5.64435">
        <ele>223</ele>
        <time>2009-05-14T13:38:15Z</time>
      </trkpt>
      <trkpt lat="46.96481" lon="5.64446">
        <ele>225</ele>
        <time>2009-05-14T13:38:29Z</time>
      </trkpt>
      <trkpt lat="46.96462" lon="5.6447">
        <ele>224</ele>
        <time>2009-05-14T13:38:44Z</time>
      </trkpt>
      <trkpt lat="46.96447" lon="5.64488">
        <ele>225</ele>
        <time>2009-05-14T13:39:03Z</time>
      </trkpt>
      <trkpt lat="46.96429" lon="5.64511">
        <ele>224</ele>
        <time>2009-05-14T13:39:20Z</time>
      </trkpt>
      <trkpt lat="46.96415" lon="5.64529">
        <ele>225</ele>
        <time>2009-05-14T13:39:35Z</time>
      </trkpt>
      <trkpt lat="46.96395" lon="5.64548">
        <ele>225</ele>
        <time>2009-05-14T13:39:52Z</time>
      </trkpt>
      <trkpt lat="46.96393" lon="5.64549">
        <ele>225</ele>
        <time>2009-05-14T13:39:54Z</time>
      </trkpt>
      <trkpt lat="46.9638" lon="5.64558">
        <ele>226</ele>
        <time>2009-05-14T13:40:09Z</time>
      </trkpt>
      <trkpt lat="46.96363" lon="5.6458">
        <ele>226</ele>
        <time>2009-05-14T13:40:24Z</time>
      </trkpt>
      <trkpt lat="46.96359" lon="5.64587">
        <ele>226</ele>
        <time>2009-05-14T13:40:30Z</time>
      </trkpt>
      <trkpt lat="46.9635" lon="5.64599">
        <ele>224</ele>
        <time>2009-05-14T13:40:41Z</time>
      </trkpt>
      <trkpt lat="46.96338" lon="5.64622">
        <ele>226</ele>
        <time>2009-05-14T13:40:56Z</time>
      </trkpt>
      <trkpt lat="46.96337" lon="5.64627">
        <ele>224</ele>
        <time>2009-05-14T13:41:00Z</time>
      </trkpt>
      <trkpt lat="46.96336" lon="5.6463">
        <ele>225</ele>
        <time>2009-05-14T13:41:02Z</time>
      </trkpt>
      <trkpt lat="46.96325" lon="5.64651">
        <ele>225</ele>
        <time>2009-05-14T13:41:17Z</time>
      </trkpt>
      <trkpt lat="46.96316" lon="5.64673">
        <ele>226</ele>
        <time>2009-05-14T13:41:31Z</time>
      </trkpt>
      <trkpt lat="46.96302" lon="5.64693">
        <ele>226</ele>
        <time>2009-05-14T13:41:46Z</time>
      </trkpt>
      <trkpt lat="46.96291" lon="5.64715">
        <ele>226</ele>
        <time>2009-05-14T13:42:00Z</time>
      </trkpt>
      <trkpt lat="46.96279" lon="5.64731">
        <ele>226</ele>
        <time>2009-05-14T13:42:14Z</time>
      </trkpt>
      <trkpt lat="46.96277" lon="5.64734">
        <ele>226</ele>
        <time>2009-05-14T13:42:16Z</time>
      </trkpt>
      <trkpt lat="46.96274" lon="5.64751">
        <ele>227</ele>
        <time>2009-05-14T13:42:23Z</time>
      </trkpt>
      <trkpt lat="46.96279" lon="5.64765">
        <ele>225</ele>
        <time>2009-05-14T13:42:35Z</time>
      </trkpt>
      <trkpt lat="46.96276" lon="5.6477">
        <ele>225</ele>
        <time>2009-05-14T13:42:39Z</time>
      </trkpt>
      <trkpt lat="46.96269" lon="5.64782">
        <ele>225</ele>
        <time>2009-05-14T13:42:48Z</time>
      </trkpt>
      <trkpt lat="46.96259" lon="5.64794">
        <ele>227</ele>
        <time>2009-05-14T13:43:02Z</time>
      </trkpt>
      <trkpt lat="46.96247" lon="5.64806">
        <ele>226</ele>
        <time>2009-05-14T13:43:14Z</time>
      </trkpt>
      <trkpt lat="46.96233" lon="5.64817">
        <ele>226</ele>
        <time>2009-05-14T13:43:24Z</time>
      </trkpt>
      <trkpt lat="46.96224" lon="5.64828">
        <ele>223</ele>
        <time>2009-05-14T13:43:33Z</time>
      </trkpt>
      <trkpt lat="46.9622" lon="5.6483">
        <ele>223</ele>
        <time>2009-05-14T13:43:38Z</time>
      </trkpt>
      <trkpt lat="46.96217" lon="5.64837">
        <ele>226</ele>
        <time>2009-05-14T13:43:43Z</time>
      </trkpt>
      <trkpt lat="46.96206" lon="5.64842">
        <ele>225</ele>
        <time>2009-05-14T13:43:53Z</time>
      </trkpt>
      <trkpt lat="46.96198" lon="5.6485">
        <ele>226</ele>
        <time>2009-05-14T13:44:02Z</time>
      </trkpt>
      <trkpt lat="46.96182" lon="5.64862">
        <ele>226</ele>
        <time>2009-05-14T13:44:16Z</time>
      </trkpt>
      <trkpt lat="46.96169" lon="5.64869">
        <ele>226</ele>
        <time>2009-05-14T13:44:29Z</time>
      </trkpt>
      <trkpt lat="46.96166" lon="5.64873">
        <ele>226</ele>
        <time>2009-05-14T13:44:32Z</time>
      </trkpt>
      <trkpt lat="46.96156" lon="5.64891">
        <ele>227</ele>
        <time>2009-05-14T13:44:48Z</time>
      </trkpt>
      <trkpt lat="46.96154" lon="5.64894">
        <ele>225</ele>
        <time>2009-05-14T13:44:51Z</time>
      </trkpt>
      <trkpt lat="46.96153" lon="5.64898">
        <ele>226</ele>
        <time>2009-05-14T13:44:54Z</time>
      </trkpt>
      <trkpt lat="46.96138" lon="5.64907">
        <ele>226</ele>
        <time>2009-05-14T13:45:08Z</time>
      </trkpt>
      <trkpt lat="46.96126" lon="5.64911">
        <ele>227</ele>
        <time>2009-05-14T13:45:18Z</time>
      </trkpt>
      <trkpt lat="46.96125" lon="5.64912">
        <ele>226</ele>
        <time>2009-05-14T13:45:20Z</time>
      </trkpt>
      <trkpt lat="46.96112" lon="5.64918">
        <ele>227</ele>
        <time>2009-05-14T13:45:32Z</time>
      </trkpt>
      <trkpt lat="46.96099" lon="5.64929">
        <ele>227</ele>
        <time>2009-05-14T13:45:45Z</time>
      </trkpt>
      <trkpt lat="46.96078" lon="5.64939">
        <ele>226</ele>
        <time>2009-05-14T13:46:06Z</time>
      </trkpt>
      <trkpt lat="46.96064" lon="5.64944">
        <ele>226</ele>
        <time>2009-05-14T13:46:16Z</time>
      </trkpt>
      <trkpt lat="46.96048" lon="5.64954">
        <ele>226</ele>
        <time>2009-05-14T13:46:31Z</time>
      </trkpt>
      <trkpt lat="46.96046" lon="5.64937">
        <ele>225</ele>
        <time>2009-05-14T13:46:47Z</time>
      </trkpt>
      <trkpt lat="46.96047" lon="5.64934">
        <ele>225</ele>
        <time>2009-05-14T13:47:33Z</time>
      </trkpt>
      <trkpt lat="46.96038" lon="5.64956">
        <ele>226</ele>
        <time>2009-05-14T13:50:03Z</time>
      </trkpt>
      <trkpt lat="46.96036" lon="5.64971">
        <ele>226</ele>
        <time>2009-05-14T13:50:21Z</time>
      </trkpt>
      <trkpt lat="46.9602" lon="5.64987">
        <ele>227</ele>
        <time>2009-05-14T13:50:43Z</time>
      </trkpt>
      <trkpt lat="46.96002" lon="5.64995">
        <ele>226</ele>
        <time>2009-05-14T13:51:00Z</time>
      </trkpt>
      <trkpt lat="46.95994" lon="5.65">
        <ele>227</ele>
        <time>2009-05-14T13:51:08Z</time>
      </trkpt>
      <trkpt lat="46.95971" lon="5.65002">
        <ele>227</ele>
        <time>2009-05-14T13:51:32Z</time>
      </trkpt>
      <trkpt lat="46.95955" lon="5.64992">
        <ele>227</ele>
        <time>2009-05-14T13:51:49Z</time>
      </trkpt>
      <trkpt lat="46.95947" lon="5.6499">
        <ele>228</ele>
        <time>2009-05-14T13:51:56Z</time>
      </trkpt>
      <trkpt lat="46.95939" lon="5.64988">
        <ele>228</ele>
        <time>2009-05-14T13:52:03Z</time>
      </trkpt>
      <trkpt lat="46.95935" lon="5.64987">
        <ele>227</ele>
        <time>2009-05-14T13:52:06Z</time>
      </trkpt>
      <trkpt lat="46.95915" lon="5.64985">
        <ele>227</ele>
        <time>2009-05-14T13:52:22Z</time>
      </trkpt>
      <trkpt lat="46.95906" lon="5.64988">
        <ele>226</ele>
        <time>2009-05-14T13:52:29Z</time>
      </trkpt>
      <trkpt lat="46.95897" lon="5.64994">
        <ele>229</ele>
        <time>2009-05-14T13:52:34Z</time>
      </trkpt>
      <trkpt lat="46.95889" lon="5.65003">
        <ele>227</ele>
        <time>2009-05-14T13:52:44Z</time>
      </trkpt>
      <trkpt lat="46.95881" lon="5.65025">
        <ele>227</ele>
        <time>2009-05-14T13:53:02Z</time>
      </trkpt>
      <trkpt lat="46.95875" lon="5.65053">
        <ele>228</ele>
        <time>2009-05-14T13:53:18Z</time>
      </trkpt>
      <trkpt lat="46.95875" lon="5.65055">
        <ele>228</ele>
        <time>2009-05-14T13:53:19Z</time>
      </trkpt>
      <trkpt lat="46.95873" lon="5.65058">
        <ele>227</ele>
        <time>2009-05-14T13:53:22Z</time>
      </trkpt>
      <trkpt lat="46.95873" lon="5.65082">
        <ele>227</ele>
        <time>2009-05-14T13:53:36Z</time>
      </trkpt>
      <trkpt lat="46.95874" lon="5.65098">
        <ele>228</ele>
        <time>2009-05-14T13:53:52Z</time>
      </trkpt>
      <trkpt lat="46.95862" lon="5.65127">
        <ele>227</ele>
        <time>2009-05-14T13:54:09Z</time>
      </trkpt>
      <trkpt lat="46.95835" lon="5.65131">
        <ele>227</ele>
        <time>2009-05-14T13:54:29Z</time>
      </trkpt>
      <trkpt lat="46.95817" lon="5.65131">
        <ele>227</ele>
        <time>2009-05-14T13:54:44Z</time>
      </trkpt>
      <trkpt lat="46.95798" lon="5.6513">
        <ele>228</ele>
        <time>2009-05-14T13:55:00Z</time>
      </trkpt>
      <trkpt lat="46.95784" lon="5.65131">
        <ele>227</ele>
        <time>2009-05-14T13:55:12Z</time>
      </trkpt>
      <trkpt lat="46.95768" lon="5.65129">
        <ele>228</ele>
        <time>2009-05-14T13:55:24Z</time>
      </trkpt>
      <trkpt lat="46.95748" lon="5.6513">
        <ele>229</ele>
        <time>2009-05-14T13:55:40Z</time>
      </trkpt>
      <trkpt lat="46.9573" lon="5.65129">
        <ele>228</ele>
        <time>2009-05-14T13:55:53Z</time>
      </trkpt>
      <trkpt lat="46.95714" lon="5.65129">
        <ele>227</ele>
        <time>2009-05-14T13:56:06Z</time>
      </trkpt>
      <trkpt lat="46.95696" lon="5.65123">
        <ele>228</ele>
        <time>2009-05-14T13:56:19Z</time>
      </trkpt>
      <trkpt lat="46.95689" lon="5.65125">
        <ele>228</ele>
        <time>2009-05-14T13:56:25Z</time>
      </trkpt>
      <trkpt lat="46.95683" lon="5.65126">
        <ele>228</ele>
        <time>2009-05-14T13:56:30Z</time>
      </trkpt>
      <trkpt lat="46.95674" lon="5.65125">
        <ele>228</ele>
        <time>2009-05-14T13:56:38Z</time>
      </trkpt>
      <trkpt lat="46.95668" lon="5.65117">
        <ele>227</ele>
        <time>2009-05-14T13:56:46Z</time>
      </trkpt>
      <trkpt lat="46.95669" lon="5.6509">
        <ele>229</ele>
        <time>2009-05-14T13:57:01Z</time>
      </trkpt>
      <trkpt lat="46.95671" lon="5.65063">
        <ele>228</ele>
        <time>2009-05-14T13:57:17Z</time>
      </trkpt>
      <trkpt lat="46.95671" lon="5.65033">
        <ele>227</ele>
        <time>2009-05-14T13:57:32Z</time>
      </trkpt>
      <trkpt lat="46.95671" lon="5.65005">
        <ele>228</ele>
        <time>2009-05-14T13:57:47Z</time>
      </trkpt>
      <trkpt lat="46.9567" lon="5.65004">
        <ele>227</ele>
        <time>2009-05-14T13:57:49Z</time>
      </trkpt>
      <trkpt lat="46.95673" lon="5.64994">
        <ele>228</ele>
        <time>2009-05-14T13:57:55Z</time>
      </trkpt>
      <trkpt lat="46.95672" lon="5.64991">
        <ele>229</ele>
        <time>2009-05-14T13:57:57Z</time>
      </trkpt>
      <trkpt lat="46.95672" lon="5.64985">
        <ele>227</ele>
        <time>2009-05-14T13:58:01Z</time>
      </trkpt>
      <trkpt lat="46.95676" lon="5.64959">
        <ele>228</ele>
        <time>2009-05-14T13:58:16Z</time>
      </trkpt>
      <trkpt lat="46.9568" lon="5.64931">
        <ele>229</ele>
        <time>2009-05-14T13:58:29Z</time>
      </trkpt>
      <trkpt lat="46.9568" lon="5.64923">
        <ele>227</ele>
        <time>2009-05-14T13:58:33Z</time>
      </trkpt>
      <trkpt lat="46.95683" lon="5.64894">
        <ele>228</ele>
        <time>2009-05-14T13:58:48Z</time>
      </trkpt>
      <trkpt lat="46.95683" lon="5.6487">
        <ele>229</ele>
        <time>2009-05-14T13:59:01Z</time>
      </trkpt>
      <trkpt lat="46.95682" lon="5.64857">
        <ele>229</ele>
        <time>2009-05-14T13:59:09Z</time>
      </trkpt>
      <trkpt lat="46.95688" lon="5.64826">
        <ele>228</ele>
        <time>2009-05-14T13:59:25Z</time>
      </trkpt>
      <trkpt lat="46.9569" lon="5.64797">
        <ele>229</ele>
        <time>2009-05-14T13:59:41Z</time>
      </trkpt>
      <trkpt lat="46.95696" lon="5.64777">
        <ele>228</ele>
        <time>2009-05-14T13:59:54Z</time>
      </trkpt>
      <trkpt lat="46.95696" lon="5.64752">
        <ele>228</ele>
        <time>2009-05-14T14:00:08Z</time>
      </trkpt>
      <trkpt lat="46.95695" lon="5.64747">
        <ele>229</ele>
        <time>2009-05-14T14:00:12Z</time>
      </trkpt>
      <trkpt lat="46.95699" lon="5.64713">
        <ele>229</ele>
        <time>2009-05-14T14:00:26Z</time>
      </trkpt>
      <trkpt lat="46.95705" lon="5.64688">
        <ele>229</ele>
        <time>2009-05-14T14:00:41Z</time>
      </trkpt>
      <trkpt lat="46.95705" lon="5.64687">
        <ele>228</ele>
        <time>2009-05-14T14:00:42Z</time>
      </trkpt>
      <trkpt lat="46.95714" lon="5.64666">
        <ele>230</ele>
        <time>2009-05-14T14:00:55Z</time>
      </trkpt>
      <trkpt lat="46.95715" lon="5.64655">
        <ele>229</ele>
        <time>2009-05-14T14:01:02Z</time>
      </trkpt>
      <trkpt lat="46.95717" lon="5.64624">
        <ele>229</ele>
        <time>2009-05-14T14:01:17Z</time>
      </trkpt>
      <trkpt lat="46.95713" lon="5.64578">
        <ele>229</ele>
        <time>2009-05-14T14:01:39Z</time>
      </trkpt>
      <trkpt lat="46.95716" lon="5.6454">
        <ele>230</ele>
        <time>2009-05-14T14:02:00Z</time>
      </trkpt>
      <trkpt lat="46.95714" lon="5.64503">
        <ele>231</ele>
        <time>2009-05-14T14:02:22Z</time>
      </trkpt>
      <trkpt lat="46.95713" lon="5.64494">
        <ele>230</ele>
        <time>2009-05-14T14:02:25Z</time>
      </trkpt>
      <trkpt lat="46.95708" lon="5.6447">
        <ele>231</ele>
        <time>2009-05-14T14:02:40Z</time>
      </trkpt>
      <trkpt lat="46.95709" lon="5.64446">
        <ele>231</ele>
        <time>2009-05-14T14:02:53Z</time>
      </trkpt>
      <trkpt lat="46.95711" lon="5.64421">
        <ele>232</ele>
        <time>2009-05-14T14:03:05Z</time>
      </trkpt>
      <trkpt lat="46.9571" lon="5.64414">
        <ele>230</ele>
        <time>2009-05-14T14:03:09Z</time>
      </trkpt>
      <trkpt lat="46.95709" lon="5.64392">
        <ele>232</ele>
        <time>2009-05-14T14:03:20Z</time>
      </trkpt>
      <trkpt lat="46.95712" lon="5.64342">
        <ele>232</ele>
        <time>2009-05-14T14:03:42Z</time>
      </trkpt>
      <trkpt lat="46.95709" lon="5.64318">
        <ele>232</ele>
        <time>2009-05-14T14:03:55Z</time>
      </trkpt>
      <trkpt lat="46.95706" lon="5.64289">
        <ele>233</ele>
        <time>2009-05-14T14:04:12Z</time>
      </trkpt>
      <trkpt lat="46.95704" lon="5.64265">
        <ele>232</ele>
        <time>2009-05-14T14:04:26Z</time>
      </trkpt>
      <trkpt lat="46.95705" lon="5.64259">
        <ele>234</ele>
        <time>2009-05-14T14:04:29Z</time>
      </trkpt>
      <trkpt lat="46.95703" lon="5.64237">
        <ele>233</ele>
        <time>2009-05-14T14:04:41Z</time>
      </trkpt>
      <trkpt lat="46.95704" lon="5.6423">
        <ele>235</ele>
        <time>2009-05-14T14:04:44Z</time>
      </trkpt>
      <trkpt lat="46.95702" lon="5.64212">
        <ele>235</ele>
        <time>2009-05-14T14:04:52Z</time>
      </trkpt>
      <trkpt lat="46.95706" lon="5.64198">
        <ele>234</ele>
        <time>2009-05-14T14:04:58Z</time>
      </trkpt>
      <trkpt lat="46.95709" lon="5.64188">
        <ele>235</ele>
        <time>2009-05-14T14:05:01Z</time>
      </trkpt>
      <trkpt lat="46.95703" lon="5.64185">
        <ele>234</ele>
        <time>2009-05-14T14:05:07Z</time>
      </trkpt>
      <trkpt lat="46.957" lon="5.64182">
        <ele>236</ele>
        <time>2009-05-14T14:05:10Z</time>
      </trkpt>
      <trkpt lat="46.95699" lon="5.64179">
        <ele>237</ele>
        <time>2009-05-14T14:05:13Z</time>
      </trkpt>
      <trkpt lat="46.95699" lon="5.64174">
        <ele>235</ele>
        <time>2009-05-14T14:05:15Z</time>
      </trkpt>
      <trkpt lat="46.95696" lon="5.6417">
        <ele>237</ele>
        <time>2009-05-14T14:05:18Z</time>
      </trkpt>
      <trkpt lat="46.95691" lon="5.6416">
        <ele>236</ele>
        <time>2009-05-14T14:05:40Z</time>
      </trkpt>
      <trkpt lat="46.95675" lon="5.64157">
        <ele>236</ele>
        <time>2009-05-14T14:08:09Z</time>
      </trkpt>
      <trkpt lat="46.95662" lon="5.6415">
        <ele>236</ele>
        <time>2009-05-14T14:08:27Z</time>
      </trkpt>
      <trkpt lat="46.95661" lon="5.64148">
        <ele>237</ele>
        <time>2009-05-14T14:08:29Z</time>
      </trkpt>
      <trkpt lat="46.95646" lon="5.64136">
        <ele>240</ele>
        <time>2009-05-14T14:08:45Z</time>
      </trkpt>
      <trkpt lat="46.95627" lon="5.64121">
        <ele>239</ele>
        <time>2009-05-14T14:09:06Z</time>
      </trkpt>
      <trkpt lat="46.95616" lon="5.64106">
        <ele>241</ele>
        <time>2009-05-14T14:09:21Z</time>
      </trkpt>
      <trkpt lat="46.9561" lon="5.64098">
        <ele>241</ele>
        <time>2009-05-14T14:09:30Z</time>
      </trkpt>
      <trkpt lat="46.95595" lon="5.64087">
        <ele>242</ele>
        <time>2009-05-14T14:09:46Z</time>
      </trkpt>
      <trkpt lat="46.95583" lon="5.64081">
        <ele>242</ele>
        <time>2009-05-14T14:09:56Z</time>
      </trkpt>
      <trkpt lat="46.95571" lon="5.64069">
        <ele>243</ele>
        <time>2009-05-14T14:10:16Z</time>
      </trkpt>
      <trkpt lat="46.95551" lon="5.64042">
        <ele>244</ele>
        <time>2009-05-14T14:10:39Z</time>
      </trkpt>
      <trkpt lat="46.95534" lon="5.6402">
        <ele>247</ele>
        <time>2009-05-14T14:11:03Z</time>
      </trkpt>
      <trkpt lat="46.9551" lon="5.6401">
        <ele>247</ele>
        <time>2009-05-14T14:11:24Z</time>
      </trkpt>
      <trkpt lat="46.95504" lon="5.64005">
        <ele>246</ele>
        <time>2009-05-14T14:11:29Z</time>
      </trkpt>
      <trkpt lat="46.95501" lon="5.64001">
        <ele>248</ele>
        <time>2009-05-14T14:11:32Z</time>
      </trkpt>
      <trkpt lat="46.95497" lon="5.63997">
        <ele>246</ele>
        <time>2009-05-14T14:11:36Z</time>
      </trkpt>
      <trkpt lat="46.95494" lon="5.63993">
        <ele>246</ele>
        <time>2009-05-14T14:11:41Z</time>
      </trkpt>
      <trkpt lat="46.95492" lon="5.6399">
        <ele>248</ele>
        <time>2009-05-14T14:11:44Z</time>
      </trkpt>
      <trkpt lat="46.95477" lon="5.63965">
        <ele>249</ele>
        <time>2009-05-14T14:12:04Z</time>
      </trkpt>
      <trkpt lat="46.95457" lon="5.63943">
        <ele>249</ele>
        <time>2009-05-14T14:12:24Z</time>
      </trkpt>
      <trkpt lat="46.95447" lon="5.63934">
        <ele>248</ele>
        <time>2009-05-14T14:12:34Z</time>
      </trkpt>
      <trkpt lat="46.9542" lon="5.63912">
        <ele>250</ele>
        <time>2009-05-14T14:12:55Z</time>
      </trkpt>
      <trkpt lat="46.95418" lon="5.6391">
        <ele>249</ele>
        <time>2009-05-14T14:12:57Z</time>
      </trkpt>
      <trkpt lat="46.95408" lon="5.63895">
        <ele>249</ele>
        <time>2009-05-14T14:13:05Z</time>
      </trkpt>
      <trkpt lat="46.95388" lon="5.63876">
        <ele>250</ele>
        <time>2009-05-14T14:13:24Z</time>
      </trkpt>
      <trkpt lat="46.95366" lon="5.63853">
        <ele>250</ele>
        <time>2009-05-14T14:13:45Z</time>
      </trkpt>
      <trkpt lat="46.95347" lon="5.63834">
        <ele>248</ele>
        <time>2009-05-14T14:14:05Z</time>
      </trkpt>
      <trkpt lat="46.95338" lon="5.63823">
        <ele>248</ele>
        <time>2009-05-14T14:14:31Z</time>
      </trkpt>
      <trkpt lat="46.95323" lon="5.63808">
        <ele>248</ele>
        <time>2009-05-14T14:14:53Z</time>
      </trkpt>
      <trkpt lat="46.95299" lon="5.63788">
        <ele>248</ele>
        <time>2009-05-14T14:18:16Z</time>
      </trkpt>
      <trkpt lat="46.95281" lon="5.63768">
        <ele>248</ele>
        <time>2009-05-14T14:18:40Z</time>
      </trkpt>
      <trkpt lat="46.95267" lon="5.63756">
        <ele>249</ele>
        <time>2009-05-14T14:18:59Z</time>
      </trkpt>
      <trkpt lat="46.95254" lon="5.63745">
        <ele>248</ele>
        <time>2009-05-14T14:19:18Z</time>
      </trkpt>
      <trkpt lat="46.95238" lon="5.6373">
        <ele>248</ele>
        <time>2009-05-14T14:19:36Z</time>
      </trkpt>
      <trkpt lat="46.95226" lon="5.63722">
        <ele>250</ele>
        <time>2009-05-14T14:19:55Z</time>
      </trkpt>
      <trkpt lat="46.95211" lon="5.63703">
        <ele>248</ele>
        <time>2009-05-14T14:20:06Z</time>
      </trkpt>
      <trkpt lat="46.95192" lon="5.63679">
        <ele>251</ele>
        <time>2009-05-14T14:20:25Z</time>
      </trkpt>
      <trkpt lat="46.95182" lon="5.63672">
        <ele>250</ele>
        <time>2009-05-14T14:20:39Z</time>
      </trkpt>
      <trkpt lat="46.95175" lon="5.63661">
        <ele>252</ele>
        <time>2009-05-14T14:20:50Z</time>
      </trkpt>
      <trkpt lat="46.95173" lon="5.63658">
        <ele>250</ele>
        <time>2009-05-14T14:20:53Z</time>
      </trkpt>
      <trkpt lat="46.95147" lon="5.63638">
        <ele>251</ele>
        <time>2009-05-14T14:21:17Z</time>
      </trkpt>
      <trkpt lat="46.95144" lon="5.63631">
        <ele>250</ele>
        <time>2009-05-14T14:21:21Z</time>
      </trkpt>
      <trkpt lat="46.95138" lon="5.63625">
        <ele>250</ele>
        <time>2009-05-14T14:21:26Z</time>
      </trkpt>
      <trkpt lat="46.95123" lon="5.63612">
        <ele>251</ele>
        <time>2009-05-14T14:21:48Z</time>
      </trkpt>
      <trkpt lat="46.95108" lon="5.63594">
        <ele>252</ele>
        <time>2009-05-14T14:22:09Z</time>
      </trkpt>
      <trkpt lat="46.95093" lon="5.63578">
        <ele>252</ele>
        <time>2009-05-14T14:22:27Z</time>
      </trkpt>
      <trkpt lat="46.95085" lon="5.63569">
        <ele>251</ele>
        <time>2009-05-14T14:22:35Z</time>
      </trkpt>
      <trkpt lat="46.95066" lon="5.63555">
        <ele>252</ele>
        <time>2009-05-14T14:22:56Z</time>
      </trkpt>
      <trkpt lat="46.9504" lon="5.63534">
        <ele>252</ele>
        <time>2009-05-14T14:23:18Z</time>
      </trkpt>
      <trkpt lat="46.95039" lon="5.63532">
        <ele>251</ele>
        <time>2009-05-14T14:23:19Z</time>
      </trkpt>
      <trkpt lat="46.95035" lon="5.63531">
        <ele>246</ele>
        <time>2009-05-14T14:23:22Z</time>
      </trkpt>
      <trkpt lat="46.95034" lon="5.63529">
        <ele>254</ele>
        <time>2009-05-14T14:23:23Z</time>
      </trkpt>
      <trkpt lat="46.95033" lon="5.63527">
        <ele>253</ele>
        <time>2009-05-14T14:23:24Z</time>
      </trkpt>
      <trkpt lat="46.95032" lon="5.63526">
        <ele>252</ele>
        <time>2009-05-14T14:23:26Z</time>
      </trkpt>
      <trkpt lat="46.95019" lon="5.63506">
        <ele>252</ele>
        <time>2009-05-14T14:23:43Z</time>
      </trkpt>
      <trkpt lat="46.95006" lon="5.63491">
        <ele>253</ele>
        <time>2009-05-14T14:23:58Z</time>
      </trkpt>
      <trkpt lat="46.95005" lon="5.63491">
        <ele>253</ele>
        <time>2009-05-14T14:23:59Z</time>
      </trkpt>
      <trkpt lat="46.94984" lon="5.6347">
        <ele>253</ele>
        <time>2009-05-14T14:24:20Z</time>
      </trkpt>
      <trkpt lat="46.94965" lon="5.63461">
        <ele>254</ele>
        <time>2009-05-14T14:24:35Z</time>
      </trkpt>
      <trkpt lat="46.9495" lon="5.63448">
        <ele>255</ele>
        <time>2009-05-14T14:24:49Z</time>
      </trkpt>
      <trkpt lat="46.94948" lon="5.63446">
        <ele>253</ele>
        <time>2009-05-14T14:24:51Z</time>
      </trkpt>
      <trkpt lat="46.94944" lon="5.63436">
        <ele>255</ele>
        <time>2009-05-14T14:25:00Z</time>
      </trkpt>
      <trkpt lat="46.94927" lon="5.63418">
        <ele>255</ele>
        <time>2009-05-14T14:25:16Z</time>
      </trkpt>
      <trkpt lat="46.94912" lon="5.63416">
        <ele>256</ele>
        <time>2009-05-14T14:25:24Z</time>
      </trkpt>
      <trkpt lat="46.949" lon="5.63403">
        <ele>256</ele>
        <time>2009-05-14T14:25:38Z</time>
      </trkpt>
      <trkpt lat="46.94902" lon="5.63401">
        <ele>256</ele>
        <time>2009-05-14T14:26:18Z</time>
      </trkpt>
      <trkpt lat="46.94888" lon="5.63379">
        <ele>258</ele>
        <time>2009-05-14T14:30:14Z</time>
      </trkpt>
      <trkpt lat="46.94874" lon="5.6337">
        <ele>259</ele>
        <time>2009-05-14T14:30:33Z</time>
      </trkpt>
      <trkpt lat="46.94866" lon="5.63364">
        <ele>259</ele>
        <time>2009-05-14T14:30:42Z</time>
      </trkpt>
      <trkpt lat="46.94847" lon="5.63345">
        <ele>259</ele>
        <time>2009-05-14T14:31:08Z</time>
      </trkpt>
      <trkpt lat="46.9483" lon="5.63318">
        <ele>260</ele>
        <time>2009-05-14T14:31:31Z</time>
      </trkpt>
      <trkpt lat="46.94847" lon="5.63295">
        <ele>259</ele>
        <time>2009-05-14T14:31:56Z</time>
      </trkpt>
      <trkpt lat="46.94854" lon="5.63284">
        <ele>258</ele>
        <time>2009-05-14T14:32:07Z</time>
      </trkpt>
      <trkpt lat="46.94881" lon="5.63261">
        <ele>259</ele>
        <time>2009-05-14T14:32:34Z</time>
      </trkpt>
      <trkpt lat="46.94895" lon="5.63232">
        <ele>259</ele>
        <time>2009-05-14T14:32:57Z</time>
      </trkpt>
      <trkpt lat="46.94915" lon="5.63201">
        <ele>260</ele>
        <time>2009-05-14T14:33:22Z</time>
      </trkpt>
      <trkpt lat="46.94929" lon="5.63173">
        <ele>260</ele>
        <time>2009-05-14T14:33:44Z</time>
      </trkpt>
      <trkpt lat="46.94946" lon="5.63142">
        <ele>262</ele>
        <time>2009-05-14T14:34:07Z</time>
      </trkpt>
      <trkpt lat="46.94967" lon="5.63113">
        <ele>260</ele>
        <time>2009-05-14T14:34:28Z</time>
      </trkpt>
      <trkpt lat="46.94984" lon="5.63086">
        <ele>261</ele>
        <time>2009-05-14T14:34:48Z</time>
      </trkpt>
      <trkpt lat="46.95001" lon="5.63058">
        <ele>261</ele>
        <time>2009-05-14T14:35:10Z</time>
      </trkpt>
      <trkpt lat="46.95015" lon="5.63034">
        <ele>261</ele>
        <time>2009-05-14T14:35:31Z</time>
      </trkpt>
      <trkpt lat="46.95019" lon="5.63028">
        <ele>262</ele>
        <time>2009-05-14T14:35:38Z</time>
      </trkpt>
      <trkpt lat="46.95034" lon="5.63002">
        <ele>261</ele>
        <time>2009-05-14T14:35:59Z</time>
      </trkpt>
      <trkpt lat="46.95041" lon="5.62988">
        <ele>261</ele>
        <time>2009-05-14T14:36:08Z</time>
      </trkpt>
      <trkpt lat="46.95061" lon="5.6296">
        <ele>261</ele>
        <time>2009-05-14T14:36:30Z</time>
      </trkpt>
      <trkpt lat="46.95072" lon="5.62936">
        <ele>260</ele>
        <time>2009-05-14T14:36:52Z</time>
      </trkpt>
      <trkpt lat="46.95087" lon="5.62911">
        <ele>260</ele>
        <time>2009-05-14T14:37:12Z</time>
      </trkpt>
      <trkpt lat="46.951" lon="5.62893">
        <ele>261</ele>
        <time>2009-05-14T14:37:32Z</time>
      </trkpt>
      <trkpt lat="46.95117" lon="5.6287">
        <ele>259</ele>
        <time>2009-05-14T14:37:54Z</time>
      </trkpt>
      <trkpt lat="46.9513" lon="5.6286">
        <ele>260</ele>
        <time>2009-05-14T14:38:12Z</time>
      </trkpt>
      <trkpt lat="46.95133" lon="5.6286">
        <ele>260</ele>
        <time>2009-05-14T14:38:49Z</time>
      </trkpt>
      <trkpt lat="46.95128" lon="5.62856">
        <ele>260</ele>
        <time>2009-05-14T14:39:38Z</time>
      </trkpt>
      <trkpt lat="46.95138" lon="5.62855">
        <ele>260</ele>
        <time>2009-05-14T14:40:16Z</time>
      </trkpt>
      <trkpt lat="46.95139" lon="5.6286">
        <ele>260</ele>
        <time>2009-05-14T14:40:51Z</time>
      </trkpt>
      <trkpt lat="46.95145" lon="5.62868">
        <ele>260</ele>
        <time>2009-05-14T14:41:44Z</time>
      </trkpt>
      <trkpt lat="46.95166" lon="5.62883">
        <ele>259</ele>
        <time>2009-05-14T14:42:03Z</time>
      </trkpt>
      <trkpt lat="46.95188" lon="5.62893">
        <ele>258</ele>
        <time>2009-05-14T14:42:26Z</time>
      </trkpt>
      <trkpt lat="46.95209" lon="5.629">
        <ele>256</ele>
        <time>2009-05-14T14:42:47Z</time>
      </trkpt>
      <trkpt lat="46.95231" lon="5.62906">
        <ele>255</ele>
        <time>2009-05-14T14:43:08Z</time>
      </trkpt>
      <trkpt lat="46.9526" lon="5.62916">
        <ele>253</ele>
        <time>2009-05-14T14:43:30Z</time>
      </trkpt>
      <trkpt lat="46.95293" lon="5.62919">
        <ele>254</ele>
        <time>2009-05-14T14:43:51Z</time>
      </trkpt>
      <trkpt lat="46.9532" lon="5.62921">
        <ele>252</ele>
        <time>2009-05-14T14:44:13Z</time>
      </trkpt>
      <trkpt lat="46.95335" lon="5.62929">
        <ele>251</ele>
        <time>2009-05-14T14:44:33Z</time>
      </trkpt>
      <trkpt lat="46.95364" lon="5.62937">
        <ele>252</ele>
        <time>2009-05-14T14:44:56Z</time>
      </trkpt>
      <trkpt lat="46.95386" lon="5.62937">
        <ele>251</ele>
        <time>2009-05-14T14:45:17Z</time>
      </trkpt>
      <trkpt lat="46.95402" lon="5.62945">
        <ele>251</ele>
        <time>2009-05-14T14:45:34Z</time>
      </trkpt>
      <trkpt lat="46.95423" lon="5.62941">
        <ele>251</ele>
        <time>2009-05-14T14:45:54Z</time>
      </trkpt>
      <trkpt lat="46.95449" lon="5.62935">
        <ele>251</ele>
        <time>2009-05-14T14:46:16Z</time>
      </trkpt>
      <trkpt lat="46.95473" lon="5.62938">
        <ele>251</ele>
        <time>2009-05-14T14:46:36Z</time>
      </trkpt>
      <trkpt lat="46.95491" lon="5.62932">
        <ele>252</ele>
        <time>2009-05-14T14:46:56Z</time>
      </trkpt>
      <trkpt lat="46.95512" lon="5.62915">
        <ele>250</ele>
        <time>2009-05-14T14:47:20Z</time>
      </trkpt>
      <trkpt lat="46.95535" lon="5.62906">
        <ele>248</ele>
        <time>2009-05-14T14:47:41Z</time>
      </trkpt>
      <trkpt lat="46.95555" lon="5.62898">
        <ele>248</ele>
        <time>2009-05-14T14:48:02Z</time>
      </trkpt>
      <trkpt lat="46.95576" lon="5.62897">
        <ele>248</ele>
        <time>2009-05-14T14:48:12Z</time>
      </trkpt>
      <trkpt lat="46.95614" lon="5.62887">
        <ele>244</ele>
        <time>2009-05-14T14:48:32Z</time>
      </trkpt>
      <trkpt lat="46.9563" lon="5.62887">
        <ele>244</ele>
        <time>2009-05-14T14:48:45Z</time>
      </trkpt>
      <trkpt lat="46.9567" lon="5.62884">
        <ele>243</ele>
        <time>2009-05-14T14:49:05Z</time>
      </trkpt>
      <trkpt lat="46.95702" lon="5.6289">
        <ele>241</ele>
        <time>2009-05-14T14:49:27Z</time>
      </trkpt>
      <trkpt lat="46.95727" lon="5.6289">
        <ele>239</ele>
        <time>2009-05-14T14:49:47Z</time>
      </trkpt>
      <trkpt lat="46.95742" lon="5.62882">
        <ele>239</ele>
        <time>2009-05-14T14:50:06Z</time>
      </trkpt>
      <trkpt lat="46.95767" lon="5.62876">
        <ele>238</ele>
        <time>2009-05-14T14:50:33Z</time>
      </trkpt>
      <trkpt lat="46.95769" lon="5.62877">
        <ele>238</ele>
        <time>2009-05-14T14:50:35Z</time>
      </trkpt>
      <trkpt lat="46.95798" lon="5.62885">
        <ele>235</ele>
        <time>2009-05-14T14:50:52Z</time>
      </trkpt>
      <trkpt lat="46.95822" lon="5.62886">
        <ele>235</ele>
        <time>2009-05-14T14:51:11Z</time>
      </trkpt>
      <trkpt lat="46.95853" lon="5.6288">
        <ele>233</ele>
        <time>2009-05-14T14:51:29Z</time>
      </trkpt>
      <trkpt lat="46.95904" lon="5.62884">
        <ele>233</ele>
        <time>2009-05-14T14:51:56Z</time>
      </trkpt>
      <trkpt lat="46.95939" lon="5.62893">
        <ele>235</ele>
        <time>2009-05-14T14:52:19Z</time>
      </trkpt>
      <trkpt lat="46.95967" lon="5.6289">
        <ele>234</ele>
        <time>2009-05-14T14:52:41Z</time>
      </trkpt>
      <trkpt lat="46.95988" lon="5.62895">
        <ele>233</ele>
        <time>2009-05-14T14:53:01Z</time>
      </trkpt>
      <trkpt lat="46.96026" lon="5.62887">
        <ele>234</ele>
        <time>2009-05-14T14:53:21Z</time>
      </trkpt>
      <trkpt lat="46.9604" lon="5.62881">
        <ele>235</ele>
        <time>2009-05-14T14:53:44Z</time>
      </trkpt>
      <trkpt lat="46.96064" lon="5.62879">
        <ele>234</ele>
        <time>2009-05-14T14:54:01Z</time>
      </trkpt>
      <trkpt lat="46.96084" lon="5.62873">
        <ele>234</ele>
        <time>2009-05-14T14:54:20Z</time>
      </trkpt>
      <trkpt lat="46.96106" lon="5.62867">
        <ele>235</ele>
        <time>2009-05-14T14:54:40Z</time>
      </trkpt>
      <trkpt lat="46.96139" lon="5.62856">
        <ele>236</ele>
        <time>2009-05-14T14:54:59Z</time>
      </trkpt>
      <trkpt lat="46.9617" lon="5.6284">
        <ele>237</ele>
        <time>2009-05-14T14:55:21Z</time>
      </trkpt>
      <trkpt lat="46.96196" lon="5.62829">
        <ele>237</ele>
        <time>2009-05-14T14:55:43Z</time>
      </trkpt>
      <trkpt lat="46.96202" lon="5.62824">
        <ele>235</ele>
        <time>2009-05-14T14:56:00Z</time>
      </trkpt>
      <trkpt lat="46.96231" lon="5.62802">
        <ele>235</ele>
        <time>2009-05-14T14:56:24Z</time>
      </trkpt>
      <trkpt lat="46.96267" lon="5.62785">
        <ele>235</ele>
        <time>2009-05-14T14:56:39Z</time>
      </trkpt>
      <trkpt lat="46.96291" lon="5.62772">
        <ele>234</ele>
        <time>2009-05-14T14:56:56Z</time>
      </trkpt>
      <trkpt lat="46.96326" lon="5.62756">
        <ele>232</ele>
        <time>2009-05-14T14:57:21Z</time>
      </trkpt>
      <trkpt lat="46.9635" lon="5.62745">
        <ele>231</ele>
        <time>2009-05-14T14:57:42Z</time>
      </trkpt>
      <trkpt lat="46.96377" lon="5.62732">
        <ele>230</ele>
        <time>2009-05-14T14:58:00Z</time>
      </trkpt>
      <trkpt lat="46.96407" lon="5.62719">
        <ele>230</ele>
        <time>2009-05-14T14:58:25Z</time>
      </trkpt>
      <trkpt lat="46.96435" lon="5.62707">
        <ele>231</ele>
        <time>2009-05-14T14:58:50Z</time>
      </trkpt>
      <trkpt lat="46.96461" lon="5.62693">
        <ele>230</ele>
        <time>2009-05-14T14:59:11Z</time>
      </trkpt>
      <trkpt lat="46.96489" lon="5.6268">
        <ele>232</ele>
        <time>2009-05-14T14:59:31Z</time>
      </trkpt>
      <trkpt lat="46.96512" lon="5.6267">
        <ele>232</ele>
        <time>2009-05-14T14:59:50Z</time>
      </trkpt>
      <trkpt lat="46.96531" lon="5.62659">
        <ele>231</ele>
        <time>2009-05-14T15:00:12Z</time>
      </trkpt>
      <trkpt lat="46.96559" lon="5.6265">
        <ele>230</ele>
        <time>2009-05-14T15:00:32Z</time>
      </trkpt>
      <trkpt lat="46.96579" lon="5.62639">
        <ele>231</ele>
        <time>2009-05-14T15:00:48Z</time>
      </trkpt>
      <trkpt lat="46.96586" lon="5.62636">
        <ele>232</ele>
        <time>2009-05-14T15:00:52Z</time>
      </trkpt>
      <trkpt lat="46.96611" lon="5.62618">
        <ele>232</ele>
        <time>2009-05-14T15:01:12Z</time>
      </trkpt>
      <trkpt lat="46.96633" lon="5.62612">
        <ele>232</ele>
        <time>2009-05-14T15:01:27Z</time>
      </trkpt>
      <trkpt lat="46.96646" lon="5.62606">
        <ele>231</ele>
        <time>2009-05-14T15:01:51Z</time>
      </trkpt>
      <trkpt lat="46.96643" lon="5.62605">
        <ele>231</ele>
        <time>2009-05-14T15:02:42Z</time>
      </trkpt>
      <trkpt lat="46.96657" lon="5.62597">
        <ele>229</ele>
        <time>2009-05-14T15:07:48Z</time>
      </trkpt>
      <trkpt lat="46.96678" lon="5.62592">
        <ele>229</ele>
        <time>2009-05-14T15:08:03Z</time>
      </trkpt>
      <trkpt lat="46.96679" lon="5.62592">
        <ele>230</ele>
        <time>2009-05-14T15:08:04Z</time>
      </trkpt>
      <trkpt lat="46.96695" lon="5.62579">
        <ele>229</ele>
        <time>2009-05-14T15:08:18Z</time>
      </trkpt>
      <trkpt lat="46.96701" lon="5.62576">
        <ele>227</ele>
        <time>2009-05-14T15:08:27Z</time>
      </trkpt>
      <trkpt lat="46.96721" lon="5.6256">
        <ele>228</ele>
        <time>2009-05-14T15:08:48Z</time>
      </trkpt>
      <trkpt lat="46.96737" lon="5.62545">
        <ele>227</ele>
        <time>2009-05-14T15:09:01Z</time>
      </trkpt>
      <trkpt lat="46.96747" lon="5.62525">
        <ele>227</ele>
        <time>2009-05-14T15:09:17Z</time>
      </trkpt>
      <trkpt lat="46.96752" lon="5.62516">
        <ele>228</ele>
        <time>2009-05-14T15:09:23Z</time>
      </trkpt>
      <trkpt lat="46.96768" lon="5.62501">
        <ele>229</ele>
        <time>2009-05-14T15:09:36Z</time>
      </trkpt>
      <trkpt lat="46.96779" lon="5.62482">
        <ele>227</ele>
        <time>2009-05-14T15:09:50Z</time>
      </trkpt>
      <trkpt lat="46.9679" lon="5.62461">
        <ele>227</ele>
        <time>2009-05-14T15:10:05Z</time>
      </trkpt>
      <trkpt lat="46.96798" lon="5.62445">
        <ele>229</ele>
        <time>2009-05-14T15:10:13Z</time>
      </trkpt>
      <trkpt lat="46.96801" lon="5.62432">
        <ele>229</ele>
        <time>2009-05-14T15:10:21Z</time>
      </trkpt>
      <trkpt lat="46.96809" lon="5.62407">
        <ele>230</ele>
        <time>2009-05-14T15:10:37Z</time>
      </trkpt>
      <trkpt lat="46.96811" lon="5.62398">
        <ele>230</ele>
        <time>2009-05-14T15:10:43Z</time>
      </trkpt>
      <trkpt lat="46.96811" lon="5.62394">
        <ele>229</ele>
        <time>2009-05-14T15:10:46Z</time>
      </trkpt>
      <trkpt lat="46.9682" lon="5.62376">
        <ele>229</ele>
        <time>2009-05-14T15:10:57Z</time>
      </trkpt>
      <trkpt lat="46.96823" lon="5.62369">
        <ele>228</ele>
        <time>2009-05-14T15:11:03Z</time>
      </trkpt>
      <trkpt lat="46.96828" lon="5.62356">
        <ele>228</ele>
        <time>2009-05-14T15:11:11Z</time>
      </trkpt>
      <trkpt lat="46.96836" lon="5.62339">
        <ele>227</ele>
        <time>2009-05-14T15:11:21Z</time>
      </trkpt>
      <trkpt lat="46.96845" lon="5.62327">
        <ele>229</ele>
        <time>2009-05-14T15:11:29Z</time>
      </trkpt>
      <trkpt lat="46.96856" lon="5.62301">
        <ele>228</ele>
        <time>2009-05-14T15:11:44Z</time>
      </trkpt>
      <trkpt lat="46.96856" lon="5.62299">
        <ele>228</ele>
        <time>2009-05-14T15:11:45Z</time>
      </trkpt>
      <trkpt lat="46.96864" lon="5.62283">
        <ele>228</ele>
        <time>2009-05-14T15:11:58Z</time>
      </trkpt>
      <trkpt lat="46.9687" lon="5.62279">
        <ele>228</ele>
        <time>2009-05-14T15:12:04Z</time>
      </trkpt>
      <trkpt lat="46.96876" lon="5.62264">
        <ele>229</ele>
        <time>2009-05-14T15:12:16Z</time>
      </trkpt>
      <trkpt lat="46.96894" lon="5.62242">
        <ele>228</ele>
        <time>2009-05-14T15:12:32Z</time>
      </trkpt>
      <trkpt lat="46.96904" lon="5.62226">
        <ele>227</ele>
        <time>2009-05-14T15:12:45Z</time>
      </trkpt>
      <trkpt lat="46.96921" lon="5.62205">
        <ele>227</ele>
        <time>2009-05-14T15:13:00Z</time>
      </trkpt>
      <trkpt lat="46.96922" lon="5.62198">
        <ele>227</ele>
        <time>2009-05-14T15:13:03Z</time>
      </trkpt>
      <trkpt lat="46.96928" lon="5.6219">
        <ele>227</ele>
        <time>2009-05-14T15:13:09Z</time>
      </trkpt>
      <trkpt lat="46.96944" lon="5.6217">
        <ele>227</ele>
        <time>2009-05-14T15:13:23Z</time>
      </trkpt>
      <trkpt lat="46.96946" lon="5.62168">
        <ele>227</ele>
        <time>2009-05-14T15:13:24Z</time>
      </trkpt>
      <trkpt lat="46.96952" lon="5.62164">
        <ele>227</ele>
        <time>2009-05-14T15:13:28Z</time>
      </trkpt>
      <trkpt lat="46.96957" lon="5.62153">
        <ele>229</ele>
        <time>2009-05-14T15:13:37Z</time>
      </trkpt>
      <trkpt lat="46.96965" lon="5.62137">
        <ele>229</ele>
        <time>2009-05-14T15:13:48Z</time>
      </trkpt>
      <trkpt lat="46.96978" lon="5.62125">
        <ele>228</ele>
        <time>2009-05-14T15:13:59Z</time>
      </trkpt>
      <trkpt lat="46.96989" lon="5.62104">
        <ele>227</ele>
        <time>2009-05-14T15:14:15Z</time>
      </trkpt>
      <trkpt lat="46.96986" lon="5.62099">
        <ele>227</ele>
        <time>2009-05-14T15:14:17Z</time>
      </trkpt>
      <trkpt lat="46.96982" lon="5.62097">
        <ele>226</ele>
        <time>2009-05-14T15:14:19Z</time>
      </trkpt>
      <trkpt lat="46.9696" lon="5.62098">
        <ele>226</ele>
        <time>2009-05-14T15:14:33Z</time>
      </trkpt>
      <trkpt lat="46.96941" lon="5.62102">
        <ele>226</ele>
        <time>2009-05-14T15:14:48Z</time>
      </trkpt>
      <trkpt lat="46.9694" lon="5.62101">
        <ele>226</ele>
        <time>2009-05-14T15:14:51Z</time>
      </trkpt>
      <trkpt lat="46.96935" lon="5.62097">
        <ele>226</ele>
        <time>2009-05-14T15:14:57Z</time>
      </trkpt>
      <trkpt lat="46.96918" lon="5.62077">
        <ele>225</ele>
        <time>2009-05-14T15:15:16Z</time>
      </trkpt>
      <trkpt lat="46.96906" lon="5.6206">
        <ele>225</ele>
        <time>2009-05-14T15:15:30Z</time>
      </trkpt>
      <trkpt lat="46.96888" lon="5.62047">
        <ele>227</ele>
        <time>2009-05-14T15:15:47Z</time>
      </trkpt>
      <trkpt lat="46.96872" lon="5.62035">
        <ele>226</ele>
        <time>2009-05-14T15:16:02Z</time>
      </trkpt>
      <trkpt lat="46.96868" lon="5.62034">
        <ele>227</ele>
        <time>2009-05-14T15:16:04Z</time>
      </trkpt>
      <trkpt lat="46.96852" lon="5.6203">
        <ele>227</ele>
        <time>2009-05-14T15:16:18Z</time>
      </trkpt>
      <trkpt lat="46.96847" lon="5.6203">
        <ele>226</ele>
        <time>2009-05-14T15:16:23Z</time>
      </trkpt>
      <trkpt lat="46.96831" lon="5.62031">
        <ele>227</ele>
        <time>2009-05-14T15:16:37Z</time>
      </trkpt>
      <trkpt lat="46.9682" lon="5.62037">
        <ele>227</ele>
        <time>2009-05-14T15:16:45Z</time>
      </trkpt>
      <trkpt lat="46.96816" lon="5.62038">
        <ele>229</ele>
        <time>2009-05-14T15:16:49Z</time>
      </trkpt>
      <trkpt lat="46.96813" lon="5.6204">
        <ele>227</ele>
        <time>2009-05-14T15:16:52Z</time>
      </trkpt>
      <trkpt lat="46.96802" lon="5.62046">
        <ele>228</ele>
        <time>2009-05-14T15:17:01Z</time>
      </trkpt>
      <trkpt lat="46.96798" lon="5.62047">
        <ele>230</ele>
        <time>2009-05-14T15:17:05Z</time>
      </trkpt>
      <trkpt lat="46.96781" lon="5.62052">
        <ele>228</ele>
        <time>2009-05-14T15:17:18Z</time>
      </trkpt>
      <trkpt lat="46.96765" lon="5.62057">
        <ele>230</ele>
        <time>2009-05-14T15:17:31Z</time>
      </trkpt>
      <trkpt lat="46.96747" lon="5.62063">
        <ele>230</ele>
        <time>2009-05-14T15:17:46Z</time>
      </trkpt>
      <trkpt lat="46.96736" lon="5.6207">
        <ele>230</ele>
        <time>2009-05-14T15:17:54Z</time>
      </trkpt>
      <trkpt lat="46.96727" lon="5.62075">
        <ele>231</ele>
        <time>2009-05-14T15:18:01Z</time>
      </trkpt>
      <trkpt lat="46.96713" lon="5.62081">
        <ele>229</ele>
        <time>2009-05-14T15:18:14Z</time>
      </trkpt>
      <trkpt lat="46.96703" lon="5.62079">
        <ele>233</ele>
        <time>2009-05-14T15:18:21Z</time>
      </trkpt>
      <trkpt lat="46.967" lon="5.62079">
        <ele>233</ele>
        <time>2009-05-14T15:18:23Z</time>
      </trkpt>
      <trkpt lat="46.96693" lon="5.62074">
        <ele>233</ele>
        <time>2009-05-14T15:18:31Z</time>
      </trkpt>
      <trkpt lat="46.96682" lon="5.62063">
        <ele>234</ele>
        <time>2009-05-14T15:18:43Z</time>
      </trkpt>
      <trkpt lat="46.96679" lon="5.62057">
        <ele>233</ele>
        <time>2009-05-14T15:18:47Z</time>
      </trkpt>
      <trkpt lat="46.96661" lon="5.62042">
        <ele>235</ele>
        <time>2009-05-14T15:19:00Z</time>
      </trkpt>
      <trkpt lat="46.96648" lon="5.6203">
        <ele>235</ele>
        <time>2009-05-14T15:19:13Z</time>
      </trkpt>
      <trkpt lat="46.96632" lon="5.62018">
        <ele>237</ele>
        <time>2009-05-14T15:19:28Z</time>
      </trkpt>
      <trkpt lat="46.96628" lon="5.62014">
        <ele>234</ele>
        <time>2009-05-14T15:19:34Z</time>
      </trkpt>
      <trkpt lat="46.96622" lon="5.62007">
        <ele>238</ele>
        <time>2009-05-14T15:19:40Z</time>
      </trkpt>
      <trkpt lat="46.96612" lon="5.61997">
        <ele>239</ele>
        <time>2009-05-14T15:19:49Z</time>
      </trkpt>
      <trkpt lat="46.96607" lon="5.61994">
        <ele>235</ele>
        <time>2009-05-14T15:19:53Z</time>
      </trkpt>
      <trkpt lat="46.96599" lon="5.61989">
        <ele>239</ele>
        <time>2009-05-14T15:19:59Z</time>
      </trkpt>
      <trkpt lat="46.9658" lon="5.6197">
        <ele>239</ele>
        <time>2009-05-14T15:20:15Z</time>
      </trkpt>
      <trkpt lat="46.96567" lon="5.61957">
        <ele>241</ele>
        <time>2009-05-14T15:20:27Z</time>
      </trkpt>
      <trkpt lat="46.96562" lon="5.6195">
        <ele>240</ele>
        <time>2009-05-14T15:20:32Z</time>
      </trkpt>
      <trkpt lat="46.96552" lon="5.61941">
        <ele>240</ele>
        <time>2009-05-14T15:20:41Z</time>
      </trkpt>
      <trkpt lat="46.96549" lon="5.61934">
        <ele>241</ele>
        <time>2009-05-14T15:20:44Z</time>
      </trkpt>
      <trkpt lat="46.96549" lon="5.61925">
        <ele>241</ele>
        <time>2009-05-14T15:20:48Z</time>
      </trkpt>
      <trkpt lat="46.96568" lon="5.61916">
        <ele>240</ele>
        <time>2009-05-14T15:21:03Z</time>
      </trkpt>
      <trkpt lat="46.96585" lon="5.61907">
        <ele>236</ele>
        <time>2009-05-14T15:21:17Z</time>
      </trkpt>
      <trkpt lat="46.96586" lon="5.61906">
        <ele>238</ele>
        <time>2009-05-14T15:21:18Z</time>
      </trkpt>
      <trkpt lat="46.96586" lon="5.61905">
        <ele>240</ele>
        <time>2009-05-14T15:21:20Z</time>
      </trkpt>
      <trkpt lat="46.96592" lon="5.61902">
        <ele>238</ele>
        <time>2009-05-14T15:21:26Z</time>
      </trkpt>
      <trkpt lat="46.96605" lon="5.61894">
        <ele>238</ele>
        <time>2009-05-14T15:21:37Z</time>
      </trkpt>
      <trkpt lat="46.96626" lon="5.61885">
        <ele>238</ele>
        <time>2009-05-14T15:21:53Z</time>
      </trkpt>
      <trkpt lat="46.96628" lon="5.61884">
        <ele>238</ele>
        <time>2009-05-14T15:21:54Z</time>
      </trkpt>
      <trkpt lat="46.96646" lon="5.61878">
        <ele>237</ele>
        <time>2009-05-14T15:22:09Z</time>
      </trkpt>
      <trkpt lat="46.96665" lon="5.61871">
        <ele>236</ele>
        <time>2009-05-14T15:22:23Z</time>
      </trkpt>
      <trkpt lat="46.96672" lon="5.61864">
        <ele>238</ele>
        <time>2009-05-14T15:22:41Z</time>
      </trkpt>
      <trkpt lat="46.96678" lon="5.61866">
        <ele>238</ele>
        <time>2009-05-14T15:23:58Z</time>
      </trkpt>
      <trkpt lat="46.96679" lon="5.61866">
        <ele>237</ele>
        <time>2009-05-14T15:31:37Z</time>
      </trkpt>
      <trkpt lat="46.96705" lon="5.61868">
        <ele>237</ele>
        <time>2009-05-14T15:31:56Z</time>
      </trkpt>
      <trkpt lat="46.96722" lon="5.61863">
        <ele>236</ele>
        <time>2009-05-14T15:32:09Z</time>
      </trkpt>
      <trkpt lat="46.96742" lon="5.61851">
        <ele>235</ele>
        <time>2009-05-14T15:32:24Z</time>
      </trkpt>
      <trkpt lat="46.9676" lon="5.61845">
        <ele>235</ele>
        <time>2009-05-14T15:32:37Z</time>
      </trkpt>
      <trkpt lat="46.9678" lon="5.61841">
        <ele>234</ele>
        <time>2009-05-14T15:32:52Z</time>
      </trkpt>
      <trkpt lat="46.96789" lon="5.61837">
        <ele>231</ele>
        <time>2009-05-14T15:32:59Z</time>
      </trkpt>
      <trkpt lat="46.96805" lon="5.61831">
        <ele>233</ele>
        <time>2009-05-14T15:33:14Z</time>
      </trkpt>
      <trkpt lat="46.96824" lon="5.61824">
        <ele>231</ele>
        <time>2009-05-14T15:33:27Z</time>
      </trkpt>
      <trkpt lat="46.96841" lon="5.61816">
        <ele>232</ele>
        <time>2009-05-14T15:33:41Z</time>
      </trkpt>
      <trkpt lat="46.96859" lon="5.61799">
        <ele>233</ele>
        <time>2009-05-14T15:33:57Z</time>
      </trkpt>
      <trkpt lat="46.96881" lon="5.61786">
        <ele>232</ele>
        <time>2009-05-14T15:34:14Z</time>
      </trkpt>
      <trkpt lat="46.96896" lon="5.61775">
        <ele>231</ele>
        <time>2009-05-14T15:34:29Z</time>
      </trkpt>
      <trkpt lat="46.96913" lon="5.6176">
        <ele>233</ele>
        <time>2009-05-14T15:34:44Z</time>
      </trkpt>
      <trkpt lat="46.96934" lon="5.61747">
        <ele>232</ele>
        <time>2009-05-14T15:35:00Z</time>
      </trkpt>
      <trkpt lat="46.96953" lon="5.61732">
        <ele>233</ele>
        <time>2009-05-14T15:35:16Z</time>
      </trkpt>
      <trkpt lat="46.96969" lon="5.61721">
        <ele>230</ele>
        <time>2009-05-14T15:35:29Z</time>
      </trkpt>
      <trkpt lat="46.96973" lon="5.61718">
        <ele>231</ele>
        <time>2009-05-14T15:35:32Z</time>
      </trkpt>
      <trkpt lat="46.9698" lon="5.61713">
        <ele>230</ele>
        <time>2009-05-14T15:35:39Z</time>
      </trkpt>
      <trkpt lat="46.96998" lon="5.61701">
        <ele>231</ele>
        <time>2009-05-14T15:35:52Z</time>
      </trkpt>
      <trkpt lat="46.97014" lon="5.61688">
        <ele>232</ele>
        <time>2009-05-14T15:36:04Z</time>
      </trkpt>
      <trkpt lat="46.97024" lon="5.61678">
        <ele>232</ele>
        <time>2009-05-14T15:36:14Z</time>
      </trkpt>
      <trkpt lat="46.97041" lon="5.61666">
        <ele>232</ele>
        <time>2009-05-14T15:36:29Z</time>
      </trkpt>
      <trkpt lat="46.97049" lon="5.6166">
        <ele>234</ele>
        <time>2009-05-14T15:36:35Z</time>
      </trkpt>
      <trkpt lat="46.97058" lon="5.61655">
        <ele>233</ele>
        <time>2009-05-14T15:36:43Z</time>
      </trkpt>
      <trkpt lat="46.97074" lon="5.61644">
        <ele>233</ele>
        <time>2009-05-14T15:36:57Z</time>
      </trkpt>
      <trkpt lat="46.97076" lon="5.61643">
        <ele>232</ele>
        <time>2009-05-14T15:36:59Z</time>
      </trkpt>
      <trkpt lat="46.97097" lon="5.61628">
        <ele>232</ele>
        <time>2009-05-14T15:37:14Z</time>
      </trkpt>
      <trkpt lat="46.97108" lon="5.61619">
        <ele>230</ele>
        <time>2009-05-14T15:37:23Z</time>
      </trkpt>
      <trkpt lat="46.97125" lon="5.61607">
        <ele>230</ele>
        <time>2009-05-14T15:37:39Z</time>
      </trkpt>
      <trkpt lat="46.97143" lon="5.61593">
        <ele>231</ele>
        <time>2009-05-14T15:37:54Z</time>
      </trkpt>
      <trkpt lat="46.97165" lon="5.61577">
        <ele>230</ele>
        <time>2009-05-14T15:38:11Z</time>
      </trkpt>
      <trkpt lat="46.97183" lon="5.61567">
        <ele>231</ele>
        <time>2009-05-14T15:38:25Z</time>
      </trkpt>
      <trkpt lat="46.97187" lon="5.61565">
        <ele>229</ele>
        <time>2009-05-14T15:38:28Z</time>
      </trkpt>
      <trkpt lat="46.97202" lon="5.61556">
        <ele>230</ele>
        <time>2009-05-14T15:38:41Z</time>
      </trkpt>
      <trkpt lat="46.97222" lon="5.61553">
        <ele>228</ele>
        <time>2009-05-14T15:38:56Z</time>
      </trkpt>
      <trkpt lat="46.9723" lon="5.61554">
        <ele>230</ele>
        <time>2009-05-14T15:39:02Z</time>
      </trkpt>
      <trkpt lat="46.97233" lon="5.61553">
        <ele>228</ele>
        <time>2009-05-14T15:39:05Z</time>
      </trkpt>
      <trkpt lat="46.97257" lon="5.61552">
        <ele>228</ele>
        <time>2009-05-14T15:39:21Z</time>
      </trkpt>
      <trkpt lat="46.97275" lon="5.61548">
        <ele>228</ele>
        <time>2009-05-14T15:39:35Z</time>
      </trkpt>
      <trkpt lat="46.97278" lon="5.61548">
        <ele>227</ele>
        <time>2009-05-14T15:39:37Z</time>
      </trkpt>
      <trkpt lat="46.97298" lon="5.61546">
        <ele>227</ele>
        <time>2009-05-14T15:39:50Z</time>
      </trkpt>
      <trkpt lat="46.97313" lon="5.61542">
        <ele>226</ele>
        <time>2009-05-14T15:40:02Z</time>
      </trkpt>
      <trkpt lat="46.97334" lon="5.61543">
        <ele>227</ele>
        <time>2009-05-14T15:40:17Z</time>
      </trkpt>
      <trkpt lat="46.97354" lon="5.61547">
        <ele>225</ele>
        <time>2009-05-14T15:40:31Z</time>
      </trkpt>
      <trkpt lat="46.97375" lon="5.61553">
        <ele>225</ele>
        <time>2009-05-14T15:40:46Z</time>
      </trkpt>
      <trkpt lat="46.9739" lon="5.61555">
        <ele>224</ele>
        <time>2009-05-14T15:40:59Z</time>
      </trkpt>
      <trkpt lat="46.97412" lon="5.6156">
        <ele>226</ele>
        <time>2009-05-14T15:41:15Z</time>
      </trkpt>
      <trkpt lat="46.97431" lon="5.61566">
        <ele>226</ele>
        <time>2009-05-14T15:41:30Z</time>
      </trkpt>
      <trkpt lat="46.97449" lon="5.61574">
        <ele>224</ele>
        <time>2009-05-14T15:41:44Z</time>
      </trkpt>
      <trkpt lat="46.97463" lon="5.61585">
        <ele>224</ele>
        <time>2009-05-14T15:41:57Z</time>
      </trkpt>
      <trkpt lat="46.97468" lon="5.6159">
        <ele>225</ele>
        <time>2009-05-14T15:42:02Z</time>
      </trkpt>
      <trkpt lat="46.97481" lon="5.61611">
        <ele>223</ele>
        <time>2009-05-14T15:42:16Z</time>
      </trkpt>
      <trkpt lat="46.97487" lon="5.61621">
        <ele>224</ele>
        <time>2009-05-14T15:42:22Z</time>
      </trkpt>
      <trkpt lat="46.975" lon="5.61641">
        <ele>222</ele>
        <time>2009-05-14T15:42:37Z</time>
      </trkpt>
      <trkpt lat="46.97502" lon="5.61644">
        <ele>222</ele>
        <time>2009-05-14T15:42:39Z</time>
      </trkpt>
      <trkpt lat="46.97513" lon="5.61662">
        <ele>222</ele>
        <time>2009-05-14T15:42:53Z</time>
      </trkpt>
      <trkpt lat="46.97517" lon="5.61668">
        <ele>222</ele>
        <time>2009-05-14T15:42:57Z</time>
      </trkpt>
      <trkpt lat="46.97535" lon="5.61695">
        <ele>221</ele>
        <time>2009-05-14T15:43:18Z</time>
      </trkpt>
      <trkpt lat="46.97547" lon="5.61713">
        <ele>223</ele>
        <time>2009-05-14T15:43:32Z</time>
      </trkpt>
      <trkpt lat="46.97551" lon="5.61715">
        <ele>222</ele>
        <time>2009-05-14T15:43:35Z</time>
      </trkpt>
      <trkpt lat="46.97556" lon="5.61718">
        <ele>223</ele>
        <time>2009-05-14T15:43:39Z</time>
      </trkpt>
      <trkpt lat="46.97561" lon="5.61721">
        <ele>222</ele>
        <time>2009-05-14T15:43:44Z</time>
      </trkpt>
      <trkpt lat="46.97567" lon="5.61736">
        <ele>222</ele>
        <time>2009-05-14T15:44:00Z</time>
      </trkpt>
      <trkpt lat="46.97572" lon="5.61751">
        <ele>222</ele>
        <time>2009-05-14T15:45:29Z</time>
      </trkpt>
      <trkpt lat="46.97576" lon="5.61754">
        <ele>220</ele>
        <time>2009-05-14T15:45:33Z</time>
      </trkpt>
      <trkpt lat="46.97585" lon="5.61766">
        <ele>220</ele>
        <time>2009-05-14T15:45:43Z</time>
      </trkpt>
      <trkpt lat="46.97586" lon="5.61768">
        <ele>223</ele>
        <time>2009-05-14T15:45:45Z</time>
      </trkpt>
      <trkpt lat="46.97586" lon="5.6177">
        <ele>222</ele>
        <time>2009-05-14T15:45:46Z</time>
      </trkpt>
      <trkpt lat="46.97589" lon="5.61781">
        <ele>220</ele>
        <time>2009-05-14T15:45:50Z</time>
      </trkpt>
      <trkpt lat="46.97604" lon="5.61801">
        <ele>222</ele>
        <time>2009-05-14T15:46:04Z</time>
      </trkpt>
      <trkpt lat="46.97624" lon="5.61826">
        <ele>221</ele>
        <time>2009-05-14T15:46:22Z</time>
      </trkpt>
      <trkpt lat="46.97626" lon="5.61831">
        <ele>220</ele>
        <time>2009-05-14T15:46:27Z</time>
      </trkpt>
      <trkpt lat="46.97627" lon="5.61835">
        <ele>220</ele>
        <time>2009-05-14T15:46:30Z</time>
      </trkpt>
      <trkpt lat="46.97639" lon="5.61848">
        <ele>220</ele>
        <time>2009-05-14T15:46:40Z</time>
      </trkpt>
      <trkpt lat="46.97643" lon="5.61856">
        <ele>221</ele>
        <time>2009-05-14T15:46:47Z</time>
      </trkpt>
      <trkpt lat="46.97651" lon="5.61863">
        <ele>217</ele>
        <time>2009-05-14T15:46:52Z</time>
      </trkpt>
      <trkpt lat="46.97652" lon="5.61864">
        <ele>218</ele>
        <time>2009-05-14T15:46:53Z</time>
      </trkpt>
      <trkpt lat="46.97658" lon="5.61868">
        <ele>219</ele>
        <time>2009-05-14T15:46:58Z</time>
      </trkpt>
      <trkpt lat="46.97659" lon="5.61877">
        <ele>220</ele>
        <time>2009-05-14T15:47:03Z</time>
      </trkpt>
      <trkpt lat="46.97669" lon="5.619">
        <ele>220</ele>
        <time>2009-05-14T15:47:17Z</time>
      </trkpt>
      <trkpt lat="46.97678" lon="5.61911">
        <ele>219</ele>
        <time>2009-05-14T15:47:27Z</time>
      </trkpt>
      <trkpt lat="46.97693" lon="5.61924">
        <ele>220</ele>
        <time>2009-05-14T15:47:43Z</time>
      </trkpt>
      <trkpt lat="46.97698" lon="5.61936">
        <ele>219</ele>
        <time>2009-05-14T15:47:52Z</time>
      </trkpt>
      <trkpt lat="46.97697" lon="5.61944">
        <ele>219</ele>
        <time>2009-05-14T15:47:57Z</time>
      </trkpt>
      <trkpt lat="46.97693" lon="5.61974">
        <ele>220</ele>
        <time>2009-05-14T15:48:13Z</time>
      </trkpt>
      <trkpt lat="46.97703" lon="5.62008">
        <ele>220</ele>
        <time>2009-05-14T15:48:29Z</time>
      </trkpt>
      <trkpt lat="46.97715" lon="5.62033">
        <ele>220</ele>
        <time>2009-05-14T15:48:44Z</time>
      </trkpt>
      <trkpt lat="46.97722" lon="5.62043">
        <ele>221</ele>
        <time>2009-05-14T15:48:52Z</time>
      </trkpt>
      <trkpt lat="46.97738" lon="5.62051">
        <ele>218</ele>
        <time>2009-05-14T15:49:02Z</time>
      </trkpt>
      <trkpt lat="46.97742" lon="5.62063">
        <ele>220</ele>
        <time>2009-05-14T15:49:08Z</time>
      </trkpt>
      <trkpt lat="46.97753" lon="5.62077">
        <ele>219</ele>
        <time>2009-05-14T15:49:21Z</time>
      </trkpt>
      <trkpt lat="46.97759" lon="5.62083">
        <ele>219</ele>
        <time>2009-05-14T15:49:26Z</time>
      </trkpt>
      <trkpt lat="46.97767" lon="5.62089">
        <ele>221</ele>
        <time>2009-05-14T15:49:32Z</time>
      </trkpt>
      <trkpt lat="46.9778" lon="5.62096">
        <ele>219</ele>
        <time>2009-05-14T15:49:43Z</time>
      </trkpt>
      <trkpt lat="46.97797" lon="5.62096">
        <ele>218</ele>
        <time>2009-05-14T15:49:57Z</time>
      </trkpt>
      <trkpt lat="46.97813" lon="5.62105">
        <ele>219</ele>
        <time>2009-05-14T15:50:10Z</time>
      </trkpt>
      <trkpt lat="46.97834" lon="5.62111">
        <ele>222</ele>
        <time>2009-05-14T15:50:25Z</time>
      </trkpt>
      <trkpt lat="46.97834" lon="5.62112">
        <ele>221</ele>
        <time>2009-05-14T15:50:26Z</time>
      </trkpt>
      <trkpt lat="46.97835" lon="5.62114">
        <ele>221</ele>
        <time>2009-05-14T15:50:28Z</time>
      </trkpt>
      <trkpt lat="46.97851" lon="5.62122">
        <ele>223</ele>
        <time>2009-05-14T15:50:41Z</time>
      </trkpt>
      <trkpt lat="46.97867" lon="5.62122">
        <ele>223</ele>
        <time>2009-05-14T15:50:55Z</time>
      </trkpt>
      <trkpt lat="46.97867" lon="5.62122">
        <ele>224</ele>
        <time>2009-05-14T15:50:57Z</time>
      </trkpt>
      <trkpt lat="46.9787" lon="5.62123">
        <ele>224</ele>
        <time>2009-05-14T15:51:05Z</time>
      </trkpt>
      <trkpt lat="46.97898" lon="5.62146">
        <ele>224</ele>
        <time>2009-05-14T15:51:25Z</time>
      </trkpt>
      <trkpt lat="46.97913" lon="5.62159">
        <ele>223</ele>
        <time>2009-05-14T15:51:43Z</time>
      </trkpt>
      <trkpt lat="46.97922" lon="5.62162">
        <ele>224</ele>
        <time>2009-05-14T15:51:55Z</time>
      </trkpt>
      <trkpt lat="46.97936" lon="5.62168">
        <ele>224</ele>
        <time>2009-05-14T15:52:05Z</time>
      </trkpt>
      <trkpt lat="46.97955" lon="5.62174">
        <ele>225</ele>
        <time>2009-05-14T15:52:19Z</time>
      </trkpt>
      <trkpt lat="46.97966" lon="5.62176">
        <ele>221</ele>
        <time>2009-05-14T15:52:30Z</time>
      </trkpt>
      <trkpt lat="46.97989" lon="5.6218">
        <ele>221</ele>
        <time>2009-05-14T15:52:54Z</time>
      </trkpt>
      <trkpt lat="46.97995" lon="5.62189">
        <ele>222</ele>
        <time>2009-05-14T15:52:59Z</time>
      </trkpt>
      <trkpt lat="46.97998" lon="5.62195">
        <ele>223</ele>
        <time>2009-05-14T15:53:03Z</time>
      </trkpt>
      <trkpt lat="46.97994" lon="5.62229">
        <ele>224</ele>
        <time>2009-05-14T15:53:19Z</time>
      </trkpt>
      <trkpt lat="46.97989" lon="5.62239">
        <ele>220</ele>
        <time>2009-05-14T15:53:24Z</time>
      </trkpt>
      <trkpt lat="46.97977" lon="5.62257">
        <ele>222</ele>
        <time>2009-05-14T15:53:38Z</time>
      </trkpt>
      <trkpt lat="46.97965" lon="5.62278">
        <ele>220</ele>
        <time>2009-05-14T15:53:51Z</time>
      </trkpt>
      <trkpt lat="46.97964" lon="5.62283">
        <ele>218</ele>
        <time>2009-05-14T15:53:54Z</time>
      </trkpt>
      <trkpt lat="46.97964" lon="5.62291">
        <ele>220</ele>
        <time>2009-05-14T15:53:58Z</time>
      </trkpt>
      <trkpt lat="46.97964" lon="5.62294">
        <ele>220</ele>
        <time>2009-05-14T15:54:00Z</time>
      </trkpt>
      <trkpt lat="46.97965" lon="5.62312">
        <ele>218</ele>
        <time>2009-05-14T15:54:11Z</time>
      </trkpt>
      <trkpt lat="46.97964" lon="5.62315">
        <ele>219</ele>
        <time>2009-05-14T15:54:13Z</time>
      </trkpt>
      <trkpt lat="46.97957" lon="5.62328">
        <ele>220</ele>
        <time>2009-05-14T15:54:19Z</time>
      </trkpt>
      <trkpt lat="46.97955" lon="5.62337">
        <ele>221</ele>
        <time>2009-05-14T15:54:24Z</time>
      </trkpt>
      <trkpt lat="46.9795" lon="5.62347">
        <ele>219</ele>
        <time>2009-05-14T15:54:28Z</time>
      </trkpt>
      <trkpt lat="46.97949" lon="5.6235">
        <ele>221</ele>
        <time>2009-05-14T15:54:30Z</time>
      </trkpt>
      <trkpt lat="46.97949" lon="5.62353">
        <ele>218</ele>
        <time>2009-05-14T15:54:32Z</time>
      </trkpt>
      <trkpt lat="46.97944" lon="5.62367">
        <ele>220</ele>
        <time>2009-05-14T15:54:38Z</time>
      </trkpt>
      <trkpt lat="46.97941" lon="5.62371">
        <ele>222</ele>
        <time>2009-05-14T15:54:41Z</time>
      </trkpt>
      <trkpt lat="46.97941" lon="5.62373">
        <ele>222</ele>
        <time>2009-05-14T15:54:42Z</time>
      </trkpt>
      <trkpt lat="46.97937" lon="5.62384">
        <ele>220</ele>
        <time>2009-05-14T15:54:49Z</time>
      </trkpt>
      <trkpt lat="46.97928" lon="5.62402">
        <ele>221</ele>
        <time>2009-05-14T15:54:57Z</time>
      </trkpt>
      <trkpt lat="46.97919" lon="5.62405">
        <ele>222</ele>
        <time>2009-05-14T15:55:06Z</time>
      </trkpt>
      <trkpt lat="46.97902" lon="5.62398">
        <ele>222</ele>
        <time>2009-05-14T15:55:21Z</time>
      </trkpt>
      <trkpt lat="46.97884" lon="5.62381">
        <ele>223</ele>
        <time>2009-05-14T15:55:36Z</time>
      </trkpt>
      <trkpt lat="46.97859" lon="5.62367">
        <ele>225</ele>
        <time>2009-05-14T15:55:54Z</time>
      </trkpt>
      <trkpt lat="46.97854" lon="5.62365">
        <ele>226</ele>
        <time>2009-05-14T15:56:00Z</time>
      </trkpt>
      <trkpt lat="46.97847" lon="5.62365">
        <ele>224</ele>
        <time>2009-05-14T15:56:04Z</time>
      </trkpt>
      <trkpt lat="46.97845" lon="5.6237">
        <ele>226</ele>
        <time>2009-05-14T15:56:07Z</time>
      </trkpt>
      <trkpt lat="46.97845" lon="5.62372">
        <ele>227</ele>
        <time>2009-05-14T15:56:08Z</time>
      </trkpt>
      <trkpt lat="46.97833" lon="5.62383">
        <ele>227</ele>
        <time>2009-05-14T15:56:16Z</time>
      </trkpt>
      <trkpt lat="46.97823" lon="5.62397">
        <ele>226</ele>
        <time>2009-05-14T15:56:27Z</time>
      </trkpt>
      <trkpt lat="46.97819" lon="5.62407">
        <ele>226</ele>
        <time>2009-05-14T15:56:44Z</time>
      </trkpt>
      <trkpt lat="46.97818" lon="5.62414">
        <ele>226</ele>
        <time>2009-05-14T15:59:54Z</time>
      </trkpt>
      <trkpt lat="46.97818" lon="5.62414">
        <ele>225</ele>
        <time>2009-05-14T16:00:30Z</time>
      </trkpt>
      <trkpt lat="46.9781" lon="5.62427">
        <ele>226</ele>
        <time>2009-05-14T16:00:44Z</time>
      </trkpt>
      <trkpt lat="46.9781" lon="5.62429">
        <ele>225</ele>
        <time>2009-05-14T16:00:48Z</time>
      </trkpt>
      <trkpt lat="46.97806" lon="5.6244">
        <ele>227</ele>
        <time>2009-05-14T16:00:55Z</time>
      </trkpt>
      <trkpt lat="46.97799" lon="5.6245">
        <ele>227</ele>
        <time>2009-05-14T16:01:02Z</time>
      </trkpt>
      <trkpt lat="46.97794" lon="5.62474">
        <ele>225</ele>
        <time>2009-05-14T16:01:16Z</time>
      </trkpt>
      <trkpt lat="46.9779" lon="5.62494">
        <ele>226</ele>
        <time>2009-05-14T16:01:28Z</time>
      </trkpt>
      <trkpt lat="46.97784" lon="5.62506">
        <ele>226</ele>
        <time>2009-05-14T16:01:36Z</time>
      </trkpt>
      <trkpt lat="46.97774" lon="5.62528">
        <ele>224</ele>
        <time>2009-05-14T16:01:51Z</time>
      </trkpt>
      <trkpt lat="46.97766" lon="5.6253">
        <ele>224</ele>
        <time>2009-05-14T16:01:59Z</time>
      </trkpt>
      <trkpt lat="46.97747" lon="5.62532">
        <ele>225</ele>
        <time>2009-05-14T16:02:13Z</time>
      </trkpt>
      <trkpt lat="46.97735" lon="5.62532">
        <ele>227</ele>
        <time>2009-05-14T16:02:20Z</time>
      </trkpt>
      <trkpt lat="46.97716" lon="5.6253">
        <ele>227</ele>
        <time>2009-05-14T16:02:34Z</time>
      </trkpt>
      <trkpt lat="46.97713" lon="5.6253">
        <ele>228</ele>
        <time>2009-05-14T16:02:37Z</time>
      </trkpt>
      <trkpt lat="46.97701" lon="5.62532">
        <ele>228</ele>
        <time>2009-05-14T16:02:45Z</time>
      </trkpt>
      <trkpt lat="46.97698" lon="5.62532">
        <ele>227</ele>
        <time>2009-05-14T16:02:47Z</time>
      </trkpt>
      <trkpt lat="46.97687" lon="5.62532">
        <ele>227</ele>
        <time>2009-05-14T16:02:55Z</time>
      </trkpt>
      <trkpt lat="46.9767" lon="5.62529">
        <ele>229</ele>
        <time>2009-05-14T16:03:07Z</time>
      </trkpt>
      <trkpt lat="46.97669" lon="5.62529">
        <ele>230</ele>
        <time>2009-05-14T16:03:08Z</time>
      </trkpt>
      <trkpt lat="46.97659" lon="5.62529">
        <ele>228</ele>
        <time>2009-05-14T16:03:16Z</time>
      </trkpt>
      <trkpt lat="46.97639" lon="5.62527">
        <ele>227</ele>
        <time>2009-05-14T16:03:29Z</time>
      </trkpt>
      <trkpt lat="46.97622" lon="5.62537">
        <ele>230</ele>
        <time>2009-05-14T16:03:43Z</time>
      </trkpt>
      <trkpt lat="46.97616" lon="5.62545">
        <ele>230</ele>
        <time>2009-05-14T16:03:49Z</time>
      </trkpt>
      <trkpt lat="46.97602" lon="5.6256">
        <ele>229</ele>
        <time>2009-05-14T16:04:02Z</time>
      </trkpt>
      <trkpt lat="46.976" lon="5.62562">
        <ele>228</ele>
        <time>2009-05-14T16:04:04Z</time>
      </trkpt>
      <trkpt lat="46.97587" lon="5.62579">
        <ele>229</ele>
        <time>2009-05-14T16:04:17Z</time>
      </trkpt>
      <trkpt lat="46.97582" lon="5.62585">
        <ele>229</ele>
        <time>2009-05-14T16:04:21Z</time>
      </trkpt>
      <trkpt lat="46.97578" lon="5.62589">
        <ele>228</ele>
        <time>2009-05-14T16:04:27Z</time>
      </trkpt>
      <trkpt lat="46.97569" lon="5.62602">
        <ele>227</ele>
        <time>2009-05-14T16:04:37Z</time>
      </trkpt>
      <trkpt lat="46.97562" lon="5.62618">
        <ele>231</ele>
        <time>2009-05-14T16:04:46Z</time>
      </trkpt>
      <trkpt lat="46.97551" lon="5.62644">
        <ele>229</ele>
        <time>2009-05-14T16:05:01Z</time>
      </trkpt>
      <trkpt lat="46.97547" lon="5.62655">
        <ele>228</ele>
        <time>2009-05-14T16:05:08Z</time>
      </trkpt>
      <trkpt lat="46.97542" lon="5.62677">
        <ele>230</ele>
        <time>2009-05-14T16:05:19Z</time>
      </trkpt>
      <trkpt lat="46.97536" lon="5.62703">
        <ele>228</ele>
        <time>2009-05-14T16:05:33Z</time>
      </trkpt>
      <trkpt lat="46.97533" lon="5.62728">
        <ele>229</ele>
        <time>2009-05-14T16:05:46Z</time>
      </trkpt>
      <trkpt lat="46.97531" lon="5.62756">
        <ele>228</ele>
        <time>2009-05-14T16:06:00Z</time>
      </trkpt>
      <trkpt lat="46.97529" lon="5.62779">
        <ele>228</ele>
        <time>2009-05-14T16:06:12Z</time>
      </trkpt>
      <trkpt lat="46.97526" lon="5.62806">
        <ele>229</ele>
        <time>2009-05-14T16:06:25Z</time>
      </trkpt>
      <trkpt lat="46.97522" lon="5.62837">
        <ele>227</ele>
        <time>2009-05-14T16:06:41Z</time>
      </trkpt>
      <trkpt lat="46.97523" lon="5.6285">
        <ele>228</ele>
        <time>2009-05-14T16:06:46Z</time>
      </trkpt>
      <trkpt lat="46.97513" lon="5.62874">
        <ele>227</ele>
        <time>2009-05-14T16:06:59Z</time>
      </trkpt>
      <trkpt lat="46.9751" lon="5.6289">
        <ele>227</ele>
        <time>2009-05-14T16:07:08Z</time>
      </trkpt>
      <trkpt lat="46.97503" lon="5.62914">
        <ele>227</ele>
        <time>2009-05-14T16:07:23Z</time>
      </trkpt>
      <trkpt lat="46.97494" lon="5.6294">
        <ele>226</ele>
        <time>2009-05-14T16:07:37Z</time>
      </trkpt>
      <trkpt lat="46.97485" lon="5.62965">
        <ele>227</ele>
        <time>2009-05-14T16:07:52Z</time>
      </trkpt>
      <trkpt lat="46.97473" lon="5.62993">
        <ele>226</ele>
        <time>2009-05-14T16:08:09Z</time>
      </trkpt>
      <trkpt lat="46.97467" lon="5.63009">
        <ele>226</ele>
        <time>2009-05-14T16:08:18Z</time>
      </trkpt>
      <trkpt lat="46.97465" lon="5.63013">
        <ele>224</ele>
        <time>2009-05-14T16:08:21Z</time>
      </trkpt>
      <trkpt lat="46.97461" lon="5.6302">
        <ele>225</ele>
        <time>2009-05-14T16:08:25Z</time>
      </trkpt>
      <trkpt lat="46.97457" lon="5.63025">
        <ele>226</ele>
        <time>2009-05-14T16:08:29Z</time>
      </trkpt>
      <trkpt lat="46.97453" lon="5.63036">
        <ele>226</ele>
        <time>2009-05-14T16:08:35Z</time>
      </trkpt>
      <trkpt lat="46.97441" lon="5.63061">
        <ele>225</ele>
        <time>2009-05-14T16:08:48Z</time>
      </trkpt>
      <trkpt lat="46.97432" lon="5.63091">
        <ele>224</ele>
        <time>2009-05-14T16:09:05Z</time>
      </trkpt>
      <trkpt lat="46.9743" lon="5.63112">
        <ele>225</ele>
        <time>2009-05-14T16:09:17Z</time>
      </trkpt>
      <trkpt lat="46.97428" lon="5.63118">
        <ele>225</ele>
        <time>2009-05-14T16:09:20Z</time>
      </trkpt>
      <trkpt lat="46.97426" lon="5.63148">
        <ele>225</ele>
        <time>2009-05-14T16:09:35Z</time>
      </trkpt>
      <trkpt lat="46.97426" lon="5.63157">
        <ele>224</ele>
        <time>2009-05-14T16:09:39Z</time>
      </trkpt>
      <trkpt lat="46.97423" lon="5.63181">
        <ele>223</ele>
        <time>2009-05-14T16:09:53Z</time>
      </trkpt>
      <trkpt lat="46.97424" lon="5.63187">
        <ele>224</ele>
        <time>2009-05-14T16:10:07Z</time>
      </trkpt>
      <trkpt lat="46.97425" lon="5.63188">
        <ele>223</ele>
        <time>2009-05-14T16:10:57Z</time>
      </trkpt>
    </trkseg>
  </trk>
</gpx>